<?xml version="1.0" encoding="UTF-8" standalone="no" ?>
<gpx xmlns="http://www.topografix.com/GPX/1/1" xmlns:xsi="http://www.w3.org/2001/XMLSchema-instance" xsi:schemaLocation="http://www.topografix.com/GPX/1/1 http://www.topografix.com/GPX/1/1/gpx.xsd" version="1.1" creator="VisuGPX - https://www.visugpx.com">
  <metadata>
    <name>Davrinche20104</name>
    <desc><![CDATA[la partie 4 des itinéraires de repérage]]></desc>
  </metadata>
  <trk>
    <name><![CDATA[--Volvic-- OR-5366920:ser-jb01-l]]></name>
    <trkseg>
      <trkpt lat="45.87125" lon="3.02784">
        <ele>578</ele>
        <time>2015-10-17T12:38:30Z</time>
      </trkpt>
      <trkpt lat="45.87112" lon="3.02779">
        <ele>578</ele>
        <time>2015-10-17T12:40:30Z</time>
      </trkpt>
      <trkpt lat="45.87119" lon="3.02751">
        <ele>580</ele>
        <time>2015-10-17T12:42:30Z</time>
      </trkpt>
      <trkpt lat="45.87124" lon="3.02732">
        <ele>583</ele>
        <time>2015-10-17T12:44:30Z</time>
      </trkpt>
      <trkpt lat="45.8713" lon="3.02711">
        <ele>585</ele>
        <time>2015-10-17T12:46:30Z</time>
      </trkpt>
      <trkpt lat="45.87126" lon="3.0269">
        <ele>588</ele>
        <time>2015-10-17T12:48:30Z</time>
      </trkpt>
      <trkpt lat="45.87128" lon="3.0267">
        <ele>591</ele>
        <time>2015-10-17T12:50:30Z</time>
      </trkpt>
      <trkpt lat="45.87137" lon="3.02651">
        <ele>592</ele>
        <time>2015-10-17T12:52:30Z</time>
      </trkpt>
      <trkpt lat="45.87143" lon="3.02633">
        <ele>593</ele>
        <time>2015-10-17T12:54:30Z</time>
      </trkpt>
      <trkpt lat="45.87145" lon="3.02612">
        <ele>595</ele>
        <time>2015-10-17T12:56:30Z</time>
      </trkpt>
      <trkpt lat="45.87149" lon="3.02584">
        <ele>598</ele>
        <time>2015-10-17T12:58:30Z</time>
      </trkpt>
      <trkpt lat="45.8715" lon="3.02555">
        <ele>600</ele>
        <time>2015-10-17T13:00:30Z</time>
      </trkpt>
      <trkpt lat="45.8715" lon="3.02521">
        <ele>603</ele>
        <time>2015-10-17T13:02:30Z</time>
      </trkpt>
      <trkpt lat="45.87148" lon="3.02494">
        <ele>606</ele>
        <time>2015-10-17T13:04:30Z</time>
      </trkpt>
      <trkpt lat="45.87152" lon="3.02472">
        <ele>608</ele>
        <time>2015-10-17T13:06:30Z</time>
      </trkpt>
      <trkpt lat="45.87157" lon="3.02431">
        <ele>611</ele>
        <time>2015-10-17T13:08:30Z</time>
      </trkpt>
      <trkpt lat="45.87171" lon="3.02421">
        <ele>611</ele>
        <time>2015-10-17T13:10:30Z</time>
      </trkpt>
      <trkpt lat="45.87184" lon="3.02406">
        <ele>612</ele>
        <time>2015-10-17T13:12:30Z</time>
      </trkpt>
      <trkpt lat="45.87197" lon="3.0239">
        <ele>613</ele>
        <time>2015-10-17T13:14:30Z</time>
      </trkpt>
      <trkpt lat="45.87211" lon="3.02365">
        <ele>615</ele>
        <time>2015-10-17T13:16:30Z</time>
      </trkpt>
      <trkpt lat="45.87222" lon="3.02345">
        <ele>616</ele>
        <time>2015-10-17T13:18:30Z</time>
      </trkpt>
      <trkpt lat="45.87236" lon="3.02327">
        <ele>616</ele>
        <time>2015-10-17T13:20:30Z</time>
      </trkpt>
      <trkpt lat="45.87239" lon="3.02307">
        <ele>617</ele>
        <time>2015-10-17T13:22:30Z</time>
      </trkpt>
      <trkpt lat="45.87243" lon="3.02289">
        <ele>618</ele>
        <time>2015-10-17T13:24:30Z</time>
      </trkpt>
      <trkpt lat="45.87242" lon="3.02253">
        <ele>619</ele>
        <time>2015-10-17T13:26:30Z</time>
      </trkpt>
      <trkpt lat="45.87238" lon="3.02229">
        <ele>620</ele>
        <time>2015-10-17T13:28:30Z</time>
      </trkpt>
      <trkpt lat="45.87235" lon="3.02191">
        <ele>620</ele>
        <time>2015-10-17T13:30:30Z</time>
      </trkpt>
      <trkpt lat="45.87233" lon="3.02169">
        <ele>620</ele>
        <time>2015-10-17T13:32:30Z</time>
      </trkpt>
      <trkpt lat="45.87228" lon="3.0214">
        <ele>620</ele>
        <time>2015-10-17T13:34:30Z</time>
      </trkpt>
      <trkpt lat="45.87227" lon="3.02114">
        <ele>621</ele>
        <time>2015-10-17T13:36:30Z</time>
      </trkpt>
      <trkpt lat="45.87225" lon="3.02087">
        <ele>621</ele>
        <time>2015-10-17T13:38:30Z</time>
      </trkpt>
      <trkpt lat="45.87222" lon="3.02058">
        <ele>622</ele>
        <time>2015-10-17T13:40:30Z</time>
      </trkpt>
      <trkpt lat="45.87216" lon="3.02024">
        <ele>623</ele>
        <time>2015-10-17T13:42:30Z</time>
      </trkpt>
      <trkpt lat="45.87211" lon="3.02003">
        <ele>624</ele>
        <time>2015-10-17T13:44:30Z</time>
      </trkpt>
      <trkpt lat="45.87194" lon="3.01998">
        <ele>625</ele>
        <time>2015-10-17T13:46:30Z</time>
      </trkpt>
      <trkpt lat="45.87182" lon="3.01998">
        <ele>625</ele>
        <time>2015-10-17T13:48:30Z</time>
      </trkpt>
      <trkpt lat="45.87171" lon="3.01993">
        <ele>626</ele>
        <time>2015-10-17T13:50:30Z</time>
      </trkpt>
      <trkpt lat="45.87161" lon="3.01977">
        <ele>628</ele>
        <time>2015-10-17T13:52:30Z</time>
      </trkpt>
      <trkpt lat="45.87153" lon="3.01962">
        <ele>629</ele>
        <time>2015-10-17T13:54:30Z</time>
      </trkpt>
      <trkpt lat="45.87141" lon="3.01934">
        <ele>631</ele>
        <time>2015-10-17T13:56:30Z</time>
      </trkpt>
      <trkpt lat="45.87129" lon="3.01916">
        <ele>633</ele>
        <time>2015-10-17T13:58:30Z</time>
      </trkpt>
      <trkpt lat="45.8712" lon="3.01903">
        <ele>635</ele>
        <time>2015-10-17T14:00:30Z</time>
      </trkpt>
      <trkpt lat="45.87116" lon="3.01875">
        <ele>636</ele>
        <time>2015-10-17T14:02:30Z</time>
      </trkpt>
      <trkpt lat="45.87114" lon="3.01848">
        <ele>638</ele>
        <time>2015-10-17T14:04:30Z</time>
      </trkpt>
      <trkpt lat="45.87117" lon="3.01829">
        <ele>639</ele>
        <time>2015-10-17T14:06:30Z</time>
      </trkpt>
      <trkpt lat="45.87118" lon="3.01806">
        <ele>640</ele>
        <time>2015-10-17T14:08:30Z</time>
      </trkpt>
      <trkpt lat="45.87119" lon="3.01782">
        <ele>642</ele>
        <time>2015-10-17T14:10:30Z</time>
      </trkpt>
      <trkpt lat="45.87123" lon="3.01759">
        <ele>644</ele>
        <time>2015-10-17T14:12:30Z</time>
      </trkpt>
      <trkpt lat="45.87129" lon="3.01741">
        <ele>645</ele>
        <time>2015-10-17T14:14:30Z</time>
      </trkpt>
      <trkpt lat="45.87138" lon="3.01733">
        <ele>646</ele>
        <time>2015-10-17T14:16:30Z</time>
      </trkpt>
      <trkpt lat="45.87145" lon="3.01719">
        <ele>648</ele>
        <time>2015-10-17T14:18:30Z</time>
      </trkpt>
      <trkpt lat="45.87151" lon="3.01702">
        <ele>649</ele>
        <time>2015-10-17T14:20:30Z</time>
      </trkpt>
      <trkpt lat="45.87155" lon="3.01687">
        <ele>650</ele>
        <time>2015-10-17T14:22:30Z</time>
      </trkpt>
      <trkpt lat="45.87161" lon="3.01662">
        <ele>652</ele>
        <time>2015-10-17T14:24:30Z</time>
      </trkpt>
      <trkpt lat="45.87168" lon="3.01644">
        <ele>654</ele>
        <time>2015-10-17T14:26:30Z</time>
      </trkpt>
      <trkpt lat="45.87177" lon="3.01632">
        <ele>655</ele>
        <time>2015-10-17T14:28:30Z</time>
      </trkpt>
      <trkpt lat="45.8719" lon="3.01621">
        <ele>656</ele>
        <time>2015-10-17T14:30:30Z</time>
      </trkpt>
      <trkpt lat="45.87208" lon="3.01608">
        <ele>657</ele>
        <time>2015-10-17T14:32:30Z</time>
      </trkpt>
      <trkpt lat="45.8722" lon="3.01593">
        <ele>658</ele>
        <time>2015-10-17T14:34:30Z</time>
      </trkpt>
      <trkpt lat="45.87227" lon="3.01562">
        <ele>659</ele>
        <time>2015-10-17T14:36:30Z</time>
      </trkpt>
      <trkpt lat="45.87235" lon="3.01535">
        <ele>660</ele>
        <time>2015-10-17T14:38:30Z</time>
      </trkpt>
      <trkpt lat="45.8724" lon="3.01512">
        <ele>661</ele>
        <time>2015-10-17T14:40:30Z</time>
      </trkpt>
      <trkpt lat="45.87241" lon="3.01483">
        <ele>661</ele>
        <time>2015-10-17T14:42:30Z</time>
      </trkpt>
      <trkpt lat="45.87239" lon="3.01459">
        <ele>661</ele>
        <time>2015-10-17T14:44:30Z</time>
      </trkpt>
      <trkpt lat="45.87239" lon="3.01426">
        <ele>661</ele>
        <time>2015-10-17T14:46:30Z</time>
      </trkpt>
      <trkpt lat="45.87238" lon="3.01404">
        <ele>661</ele>
        <time>2015-10-17T14:48:30Z</time>
      </trkpt>
      <trkpt lat="45.8723" lon="3.01385">
        <ele>662</ele>
        <time>2015-10-17T14:50:30Z</time>
      </trkpt>
      <trkpt lat="45.87221" lon="3.01355">
        <ele>662</ele>
        <time>2015-10-17T14:52:30Z</time>
      </trkpt>
      <trkpt lat="45.87215" lon="3.01342">
        <ele>663</ele>
        <time>2015-10-17T14:54:30Z</time>
      </trkpt>
      <trkpt lat="45.87213" lon="3.01322">
        <ele>663</ele>
        <time>2015-10-17T14:56:30Z</time>
      </trkpt>
      <trkpt lat="45.8721" lon="3.01291">
        <ele>664</ele>
        <time>2015-10-17T14:58:30Z</time>
      </trkpt>
      <trkpt lat="45.8721" lon="3.0126">
        <ele>666</ele>
        <time>2015-10-17T15:00:30Z</time>
      </trkpt>
      <trkpt lat="45.87207" lon="3.01232">
        <ele>667</ele>
        <time>2015-10-17T15:02:30Z</time>
      </trkpt>
      <trkpt lat="45.87201" lon="3.01206">
        <ele>668</ele>
        <time>2015-10-17T15:04:30Z</time>
      </trkpt>
      <trkpt lat="45.87195" lon="3.01178">
        <ele>669</ele>
        <time>2015-10-17T15:06:30Z</time>
      </trkpt>
      <trkpt lat="45.87189" lon="3.01158">
        <ele>669</ele>
        <time>2015-10-17T15:08:30Z</time>
      </trkpt>
      <trkpt lat="45.8718" lon="3.01143">
        <ele>670</ele>
        <time>2015-10-17T15:10:30Z</time>
      </trkpt>
      <trkpt lat="45.87171" lon="3.01126">
        <ele>671</ele>
        <time>2015-10-17T15:12:30Z</time>
      </trkpt>
      <trkpt lat="45.87165" lon="3.011">
        <ele>672</ele>
        <time>2015-10-17T15:14:30Z</time>
      </trkpt>
      <trkpt lat="45.87156" lon="3.01068">
        <ele>674</ele>
        <time>2015-10-17T15:16:30Z</time>
      </trkpt>
      <trkpt lat="45.87155" lon="3.01033">
        <ele>676</ele>
        <time>2015-10-17T15:18:30Z</time>
      </trkpt>
      <trkpt lat="45.87151" lon="3.01005">
        <ele>677</ele>
        <time>2015-10-17T15:20:30Z</time>
      </trkpt>
      <trkpt lat="45.87148" lon="3.00977">
        <ele>679</ele>
        <time>2015-10-17T15:22:30Z</time>
      </trkpt>
      <trkpt lat="45.87148" lon="3.00943">
        <ele>681</ele>
        <time>2015-10-17T15:24:30Z</time>
      </trkpt>
      <trkpt lat="45.87146" lon="3.00913">
        <ele>683</ele>
        <time>2015-10-17T15:26:30Z</time>
      </trkpt>
      <trkpt lat="45.87142" lon="3.00892">
        <ele>684</ele>
        <time>2015-10-17T15:28:30Z</time>
      </trkpt>
      <trkpt lat="45.87133" lon="3.00853">
        <ele>685</ele>
        <time>2015-10-17T15:30:30Z</time>
      </trkpt>
      <trkpt lat="45.87127" lon="3.0083">
        <ele>687</ele>
        <time>2015-10-17T15:32:30Z</time>
      </trkpt>
      <trkpt lat="45.87121" lon="3.00807">
        <ele>688</ele>
        <time>2015-10-17T15:34:30Z</time>
      </trkpt>
      <trkpt lat="45.87114" lon="3.00781">
        <ele>689</ele>
        <time>2015-10-17T15:36:30Z</time>
      </trkpt>
      <trkpt lat="45.87101" lon="3.00768">
        <ele>690</ele>
        <time>2015-10-17T15:38:30Z</time>
      </trkpt>
      <trkpt lat="45.87086" lon="3.00763">
        <ele>690</ele>
        <time>2015-10-17T15:40:30Z</time>
      </trkpt>
      <trkpt lat="45.87071" lon="3.00761">
        <ele>692</ele>
        <time>2015-10-17T15:42:30Z</time>
      </trkpt>
      <trkpt lat="45.87053" lon="3.00759">
        <ele>693</ele>
        <time>2015-10-17T15:44:30Z</time>
      </trkpt>
      <trkpt lat="45.87049" lon="3.0074">
        <ele>695</ele>
        <time>2015-10-17T15:46:30Z</time>
      </trkpt>
      <trkpt lat="45.87042" lon="3.00714">
        <ele>698</ele>
        <time>2015-10-17T15:48:30Z</time>
      </trkpt>
      <trkpt lat="45.87043" lon="3.00688">
        <ele>700</ele>
        <time>2015-10-17T15:50:30Z</time>
      </trkpt>
      <trkpt lat="45.87043" lon="3.00664">
        <ele>702</ele>
        <time>2015-10-17T15:52:30Z</time>
      </trkpt>
      <trkpt lat="45.87038" lon="3.00641">
        <ele>704</ele>
        <time>2015-10-17T15:54:30Z</time>
      </trkpt>
      <trkpt lat="45.87045" lon="3.00616">
        <ele>706</ele>
        <time>2015-10-17T15:56:30Z</time>
      </trkpt>
      <trkpt lat="45.87051" lon="3.00604">
        <ele>707</ele>
        <time>2015-10-17T15:58:30Z</time>
      </trkpt>
      <trkpt lat="45.87063" lon="3.00596">
        <ele>708</ele>
        <time>2015-10-17T16:00:30Z</time>
      </trkpt>
      <trkpt lat="45.87076" lon="3.00587">
        <ele>708</ele>
        <time>2015-10-17T16:02:30Z</time>
      </trkpt>
      <trkpt lat="45.87084" lon="3.00576">
        <ele>709</ele>
        <time>2015-10-17T16:04:30Z</time>
      </trkpt>
      <trkpt lat="45.87091" lon="3.00557">
        <ele>710</ele>
        <time>2015-10-17T16:06:30Z</time>
      </trkpt>
      <trkpt lat="45.87093" lon="3.00535">
        <ele>712</ele>
        <time>2015-10-17T16:08:30Z</time>
      </trkpt>
      <trkpt lat="45.87089" lon="3.00498">
        <ele>715</ele>
        <time>2015-10-17T16:10:30Z</time>
      </trkpt>
      <trkpt lat="45.87091" lon="3.00465">
        <ele>716</ele>
        <time>2015-10-17T16:12:30Z</time>
      </trkpt>
      <trkpt lat="45.8709" lon="3.0043">
        <ele>718</ele>
        <time>2015-10-17T16:14:30Z</time>
      </trkpt>
      <trkpt lat="45.87089" lon="3.00398">
        <ele>718</ele>
        <time>2015-10-17T16:16:30Z</time>
      </trkpt>
      <trkpt lat="45.87087" lon="3.00361">
        <ele>718</ele>
        <time>2015-10-17T16:18:30Z</time>
      </trkpt>
      <trkpt lat="45.87086" lon="3.00321">
        <ele>718</ele>
        <time>2015-10-17T16:20:30Z</time>
      </trkpt>
      <trkpt lat="45.87086" lon="3.00285">
        <ele>719</ele>
        <time>2015-10-17T16:22:30Z</time>
      </trkpt>
      <trkpt lat="45.87084" lon="3.00249">
        <ele>720</ele>
        <time>2015-10-17T16:24:30Z</time>
      </trkpt>
      <trkpt lat="45.87085" lon="3.00214">
        <ele>722</ele>
        <time>2015-10-17T16:26:30Z</time>
      </trkpt>
      <trkpt lat="45.87083" lon="3.00182">
        <ele>723</ele>
        <time>2015-10-17T16:28:30Z</time>
      </trkpt>
      <trkpt lat="45.87083" lon="3.00156">
        <ele>724</ele>
        <time>2015-10-17T16:30:30Z</time>
      </trkpt>
      <trkpt lat="45.87083" lon="3.00125">
        <ele>725</ele>
        <time>2015-10-17T16:32:30Z</time>
      </trkpt>
      <trkpt lat="45.87083" lon="3.00101">
        <ele>726</ele>
        <time>2015-10-17T16:34:30Z</time>
      </trkpt>
      <trkpt lat="45.87083" lon="3.00057">
        <ele>728</ele>
        <time>2015-10-17T16:36:30Z</time>
      </trkpt>
      <trkpt lat="45.8708" lon="3.00021">
        <ele>731</ele>
        <time>2015-10-17T16:38:30Z</time>
      </trkpt>
      <trkpt lat="45.8708" lon="2.99983">
        <ele>734</ele>
        <time>2015-10-17T16:40:30Z</time>
      </trkpt>
      <trkpt lat="45.8708" lon="2.99906">
        <ele>739</ele>
        <time>2015-10-17T16:42:30Z</time>
      </trkpt>
      <trkpt lat="45.87081" lon="2.99865">
        <ele>742</ele>
        <time>2015-10-17T16:44:30Z</time>
      </trkpt>
      <trkpt lat="45.87078" lon="2.99834">
        <ele>744</ele>
        <time>2015-10-17T16:46:30Z</time>
      </trkpt>
      <trkpt lat="45.87074" lon="2.99795">
        <ele>746</ele>
        <time>2015-10-17T16:48:30Z</time>
      </trkpt>
      <trkpt lat="45.87075" lon="2.99739">
        <ele>749</ele>
        <time>2015-10-17T16:50:30Z</time>
      </trkpt>
      <trkpt lat="45.87075" lon="2.99712">
        <ele>750</ele>
        <time>2015-10-17T16:52:30Z</time>
      </trkpt>
      <trkpt lat="45.87082" lon="2.99679">
        <ele>751</ele>
        <time>2015-10-17T16:54:30Z</time>
      </trkpt>
      <trkpt lat="45.87083" lon="2.99641">
        <ele>754</ele>
        <time>2015-10-17T16:56:30Z</time>
      </trkpt>
      <trkpt lat="45.8708" lon="2.99595">
        <ele>756</ele>
        <time>2015-10-17T16:58:30Z</time>
      </trkpt>
      <trkpt lat="45.87082" lon="2.99555">
        <ele>759</ele>
        <time>2015-10-17T17:00:30Z</time>
      </trkpt>
      <trkpt lat="45.87083" lon="2.9953">
        <ele>761</ele>
        <time>2015-10-17T17:02:30Z</time>
      </trkpt>
      <trkpt lat="45.87089" lon="2.99481">
        <ele>766</ele>
        <time>2015-10-17T17:04:30Z</time>
      </trkpt>
      <trkpt lat="45.87091" lon="2.9945">
        <ele>770</ele>
        <time>2015-10-17T17:06:30Z</time>
      </trkpt>
      <trkpt lat="45.87082" lon="2.99418">
        <ele>773</ele>
        <time>2015-10-17T17:08:30Z</time>
      </trkpt>
      <trkpt lat="45.87098" lon="2.9941">
        <ele>774</ele>
        <time>2015-10-17T17:10:30Z</time>
      </trkpt>
      <trkpt lat="45.87114" lon="2.99398">
        <ele>775</ele>
        <time>2015-10-17T17:12:30Z</time>
      </trkpt>
      <trkpt lat="45.87125" lon="2.99389">
        <ele>775</ele>
        <time>2015-10-17T17:14:30Z</time>
      </trkpt>
      <trkpt lat="45.87142" lon="2.99374">
        <ele>776</ele>
        <time>2015-10-17T17:16:30Z</time>
      </trkpt>
      <trkpt lat="45.87151" lon="2.99361">
        <ele>776</ele>
        <time>2015-10-17T17:18:30Z</time>
      </trkpt>
      <trkpt lat="45.87163" lon="2.99343">
        <ele>777</ele>
        <time>2015-10-17T17:20:30Z</time>
      </trkpt>
      <trkpt lat="45.87166" lon="2.99325">
        <ele>777</ele>
        <time>2015-10-17T17:22:30Z</time>
      </trkpt>
      <trkpt lat="45.8716" lon="2.99291">
        <ele>779</ele>
        <time>2015-10-17T17:24:30Z</time>
      </trkpt>
      <trkpt lat="45.87154" lon="2.99267">
        <ele>780</ele>
        <time>2015-10-17T17:26:30Z</time>
      </trkpt>
      <trkpt lat="45.87148" lon="2.99248">
        <ele>781</ele>
        <time>2015-10-17T17:28:30Z</time>
      </trkpt>
      <trkpt lat="45.87137" lon="2.99232">
        <ele>782</ele>
        <time>2015-10-17T17:30:30Z</time>
      </trkpt>
      <trkpt lat="45.87127" lon="2.9921">
        <ele>783</ele>
        <time>2015-10-17T17:32:30Z</time>
      </trkpt>
      <trkpt lat="45.8712" lon="2.99186">
        <ele>785</ele>
        <time>2015-10-17T17:34:30Z</time>
      </trkpt>
      <trkpt lat="45.87113" lon="2.9916">
        <ele>786</ele>
        <time>2015-10-17T17:36:30Z</time>
      </trkpt>
      <trkpt lat="45.87118" lon="2.99133">
        <ele>788</ele>
        <time>2015-10-17T17:38:30Z</time>
      </trkpt>
      <trkpt lat="45.87134" lon="2.991">
        <ele>790</ele>
        <time>2015-10-17T17:40:30Z</time>
      </trkpt>
      <trkpt lat="45.87148" lon="2.99079">
        <ele>791</ele>
        <time>2015-10-17T17:42:30Z</time>
      </trkpt>
      <trkpt lat="45.87179" lon="2.99041">
        <ele>790</ele>
        <time>2015-10-17T17:44:30Z</time>
      </trkpt>
      <trkpt lat="45.872" lon="2.99024">
        <ele>788</ele>
        <time>2015-10-17T17:46:30Z</time>
      </trkpt>
      <trkpt lat="45.87219" lon="2.99014">
        <ele>787</ele>
        <time>2015-10-17T17:48:30Z</time>
      </trkpt>
      <trkpt lat="45.87235" lon="2.99007">
        <ele>785</ele>
        <time>2015-10-17T17:50:30Z</time>
      </trkpt>
      <trkpt lat="45.87248" lon="2.99012">
        <ele>784</ele>
        <time>2015-10-17T17:52:30Z</time>
      </trkpt>
      <trkpt lat="45.87262" lon="2.99011">
        <ele>784</ele>
        <time>2015-10-17T17:54:30Z</time>
      </trkpt>
      <trkpt lat="45.87269" lon="2.98994">
        <ele>784</ele>
        <time>2015-10-17T17:56:30Z</time>
      </trkpt>
      <trkpt lat="45.87262" lon="2.98963">
        <ele>785</ele>
        <time>2015-10-17T17:58:30Z</time>
      </trkpt>
      <trkpt lat="45.8726" lon="2.98928">
        <ele>787</ele>
        <time>2015-10-17T18:00:30Z</time>
      </trkpt>
      <trkpt lat="45.87258" lon="2.98905">
        <ele>788</ele>
        <time>2015-10-17T18:02:30Z</time>
      </trkpt>
      <trkpt lat="45.87264" lon="2.98868">
        <ele>787</ele>
        <time>2015-10-17T18:04:30Z</time>
      </trkpt>
      <trkpt lat="45.87268" lon="2.98841">
        <ele>787</ele>
        <time>2015-10-17T18:06:30Z</time>
      </trkpt>
      <trkpt lat="45.87269" lon="2.9882">
        <ele>788</ele>
        <time>2015-10-17T18:08:30Z</time>
      </trkpt>
      <trkpt lat="45.87272" lon="2.98786">
        <ele>788</ele>
        <time>2015-10-17T18:10:30Z</time>
      </trkpt>
      <trkpt lat="45.87269" lon="2.98742">
        <ele>789</ele>
        <time>2015-10-17T18:12:30Z</time>
      </trkpt>
      <trkpt lat="45.87264" lon="2.98699">
        <ele>791</ele>
        <time>2015-10-17T18:14:30Z</time>
      </trkpt>
      <trkpt lat="45.87263" lon="2.98662">
        <ele>793</ele>
        <time>2015-10-17T18:16:30Z</time>
      </trkpt>
      <trkpt lat="45.87267" lon="2.98634">
        <ele>793</ele>
        <time>2015-10-17T18:18:30Z</time>
      </trkpt>
      <trkpt lat="45.87274" lon="2.98614">
        <ele>793</ele>
        <time>2015-10-17T18:20:30Z</time>
      </trkpt>
      <trkpt lat="45.87281" lon="2.98595">
        <ele>793</ele>
        <time>2015-10-17T18:22:30Z</time>
      </trkpt>
      <trkpt lat="45.87289" lon="2.98565">
        <ele>793</ele>
        <time>2015-10-17T18:24:30Z</time>
      </trkpt>
      <trkpt lat="45.87278" lon="2.98547">
        <ele>794</ele>
        <time>2015-10-17T18:26:30Z</time>
      </trkpt>
      <trkpt lat="45.87266" lon="2.98531">
        <ele>795</ele>
        <time>2015-10-17T18:28:30Z</time>
      </trkpt>
      <trkpt lat="45.87254" lon="2.98515">
        <ele>796</ele>
        <time>2015-10-17T18:30:30Z</time>
      </trkpt>
      <trkpt lat="45.87244" lon="2.98499">
        <ele>796</ele>
        <time>2015-10-17T18:32:30Z</time>
      </trkpt>
      <trkpt lat="45.87245" lon="2.98478">
        <ele>797</ele>
        <time>2015-10-17T18:34:30Z</time>
      </trkpt>
      <trkpt lat="45.87249" lon="2.98458">
        <ele>798</ele>
        <time>2015-10-17T18:36:30Z</time>
      </trkpt>
      <trkpt lat="45.87245" lon="2.98441">
        <ele>799</ele>
        <time>2015-10-17T18:38:30Z</time>
      </trkpt>
      <trkpt lat="45.87233" lon="2.98417">
        <ele>802</ele>
        <time>2015-10-17T18:40:30Z</time>
      </trkpt>
      <trkpt lat="45.87225" lon="2.98383">
        <ele>803</ele>
        <time>2015-10-17T18:42:30Z</time>
      </trkpt>
      <trkpt lat="45.87223" lon="2.98357">
        <ele>804</ele>
        <time>2015-10-17T18:44:30Z</time>
      </trkpt>
      <trkpt lat="45.87226" lon="2.98326">
        <ele>805</ele>
        <time>2015-10-17T18:46:30Z</time>
      </trkpt>
      <trkpt lat="45.87225" lon="2.98295">
        <ele>805</ele>
        <time>2015-10-17T18:48:30Z</time>
      </trkpt>
      <trkpt lat="45.87219" lon="2.98274">
        <ele>806</ele>
        <time>2015-10-17T18:50:30Z</time>
      </trkpt>
      <trkpt lat="45.87208" lon="2.98243">
        <ele>807</ele>
        <time>2015-10-17T18:52:30Z</time>
      </trkpt>
      <trkpt lat="45.87198" lon="2.98217">
        <ele>808</ele>
        <time>2015-10-17T18:54:30Z</time>
      </trkpt>
      <trkpt lat="45.87187" lon="2.98179">
        <ele>809</ele>
        <time>2015-10-17T18:56:30Z</time>
      </trkpt>
      <trkpt lat="45.87175" lon="2.98144">
        <ele>810</ele>
        <time>2015-10-17T18:58:30Z</time>
      </trkpt>
      <trkpt lat="45.87166" lon="2.98125">
        <ele>810</ele>
        <time>2015-10-17T19:00:30Z</time>
      </trkpt>
      <trkpt lat="45.87153" lon="2.98107">
        <ele>811</ele>
        <time>2015-10-17T19:02:30Z</time>
      </trkpt>
      <trkpt lat="45.87135" lon="2.98089">
        <ele>812</ele>
        <time>2015-10-17T19:04:30Z</time>
      </trkpt>
      <trkpt lat="45.87136" lon="2.98111">
        <ele>812</ele>
        <time>2015-10-17T19:06:30Z</time>
      </trkpt>
      <trkpt lat="45.87132" lon="2.98136">
        <ele>812</ele>
        <time>2015-10-17T19:08:30Z</time>
      </trkpt>
      <trkpt lat="45.87111" lon="2.98176">
        <ele>814</ele>
        <time>2015-10-17T19:10:30Z</time>
      </trkpt>
      <trkpt lat="45.87098" lon="2.98188">
        <ele>815</ele>
        <time>2015-10-17T19:12:30Z</time>
      </trkpt>
      <trkpt lat="45.8708" lon="2.98197">
        <ele>816</ele>
        <time>2015-10-17T19:14:30Z</time>
      </trkpt>
      <trkpt lat="45.87061" lon="2.98205">
        <ele>816</ele>
        <time>2015-10-17T19:16:30Z</time>
      </trkpt>
      <trkpt lat="45.87039" lon="2.98208">
        <ele>816</ele>
        <time>2015-10-17T19:18:30Z</time>
      </trkpt>
      <trkpt lat="45.87015" lon="2.98218">
        <ele>815</ele>
        <time>2015-10-17T19:20:30Z</time>
      </trkpt>
      <trkpt lat="45.86994" lon="2.98226">
        <ele>815</ele>
        <time>2015-10-17T19:22:30Z</time>
      </trkpt>
      <trkpt lat="45.86955" lon="2.98242">
        <ele>815</ele>
        <time>2015-10-17T19:24:30Z</time>
      </trkpt>
      <trkpt lat="45.86935" lon="2.98249">
        <ele>814</ele>
        <time>2015-10-17T19:26:30Z</time>
      </trkpt>
      <trkpt lat="45.86921" lon="2.98258">
        <ele>814</ele>
        <time>2015-10-17T19:28:30Z</time>
      </trkpt>
      <trkpt lat="45.86898" lon="2.98279">
        <ele>815</ele>
        <time>2015-10-17T19:30:30Z</time>
      </trkpt>
      <trkpt lat="45.86882" lon="2.98297">
        <ele>815</ele>
        <time>2015-10-17T19:32:30Z</time>
      </trkpt>
      <trkpt lat="45.86861" lon="2.98315">
        <ele>816</ele>
        <time>2015-10-17T19:34:30Z</time>
      </trkpt>
      <trkpt lat="45.86842" lon="2.98327">
        <ele>817</ele>
        <time>2015-10-17T19:36:30Z</time>
      </trkpt>
      <trkpt lat="45.86823" lon="2.98332">
        <ele>818</ele>
        <time>2015-10-17T19:38:30Z</time>
      </trkpt>
      <trkpt lat="45.86808" lon="2.98345">
        <ele>820</ele>
        <time>2015-10-17T19:40:30Z</time>
      </trkpt>
      <trkpt lat="45.86793" lon="2.98359">
        <ele>822</ele>
        <time>2015-10-17T19:42:30Z</time>
      </trkpt>
      <trkpt lat="45.86764" lon="2.98402">
        <ele>825</ele>
        <time>2015-10-17T19:44:30Z</time>
      </trkpt>
      <trkpt lat="45.86758" lon="2.9843">
        <ele>825</ele>
        <time>2015-10-17T19:46:30Z</time>
      </trkpt>
      <trkpt lat="45.86753" lon="2.9846">
        <ele>825</ele>
        <time>2015-10-17T19:48:30Z</time>
      </trkpt>
      <trkpt lat="45.86746" lon="2.9848">
        <ele>825</ele>
        <time>2015-10-17T19:50:30Z</time>
      </trkpt>
      <trkpt lat="45.86735" lon="2.98503">
        <ele>827</ele>
        <time>2015-10-17T19:52:30Z</time>
      </trkpt>
      <trkpt lat="45.86722" lon="2.98521">
        <ele>829</ele>
        <time>2015-10-17T19:54:30Z</time>
      </trkpt>
      <trkpt lat="45.86707" lon="2.9854">
        <ele>832</ele>
        <time>2015-10-17T19:56:30Z</time>
      </trkpt>
      <trkpt lat="45.86693" lon="2.9856">
        <ele>834</ele>
        <time>2015-10-17T19:58:30Z</time>
      </trkpt>
      <trkpt lat="45.86683" lon="2.98573">
        <ele>836</ele>
        <time>2015-10-17T20:00:30Z</time>
      </trkpt>
      <trkpt lat="45.86666" lon="2.98585">
        <ele>839</ele>
        <time>2015-10-17T20:02:30Z</time>
      </trkpt>
      <trkpt lat="45.86649" lon="2.98602">
        <ele>845</ele>
        <time>2015-10-17T20:04:30Z</time>
      </trkpt>
      <trkpt lat="45.86643" lon="2.98625">
        <ele>846</ele>
        <time>2015-10-17T20:06:30Z</time>
      </trkpt>
      <trkpt lat="45.86632" lon="2.98644">
        <ele>849</ele>
        <time>2015-10-17T20:08:30Z</time>
      </trkpt>
      <trkpt lat="45.86611" lon="2.98666">
        <ele>853</ele>
        <time>2015-10-17T20:10:30Z</time>
      </trkpt>
      <trkpt lat="45.86595" lon="2.98676">
        <ele>855</ele>
        <time>2015-10-17T20:12:30Z</time>
      </trkpt>
      <trkpt lat="45.86573" lon="2.98673">
        <ele>859</ele>
        <time>2015-10-17T20:14:30Z</time>
      </trkpt>
      <trkpt lat="45.86549" lon="2.98655">
        <ele>864</ele>
        <time>2015-10-17T20:16:30Z</time>
      </trkpt>
      <trkpt lat="45.86524" lon="2.98651">
        <ele>868</ele>
        <time>2015-10-17T20:18:30Z</time>
      </trkpt>
      <trkpt lat="45.86498" lon="2.98641">
        <ele>873</ele>
        <time>2015-10-17T20:20:30Z</time>
      </trkpt>
      <trkpt lat="45.86477" lon="2.98639">
        <ele>876</ele>
        <time>2015-10-17T20:22:30Z</time>
      </trkpt>
      <trkpt lat="45.86459" lon="2.98636">
        <ele>878</ele>
        <time>2015-10-17T20:24:30Z</time>
      </trkpt>
      <trkpt lat="45.86442" lon="2.98629">
        <ele>881</ele>
        <time>2015-10-17T20:26:30Z</time>
      </trkpt>
      <trkpt lat="45.86424" lon="2.98628">
        <ele>884</ele>
        <time>2015-10-17T20:28:30Z</time>
      </trkpt>
      <trkpt lat="45.86412" lon="2.98636">
        <ele>885</ele>
        <time>2015-10-17T20:30:30Z</time>
      </trkpt>
      <trkpt lat="45.86398" lon="2.98634">
        <ele>888</ele>
        <time>2015-10-17T20:32:30Z</time>
      </trkpt>
      <trkpt lat="45.86381" lon="2.98634">
        <ele>893</ele>
        <time>2015-10-17T20:34:30Z</time>
      </trkpt>
      <trkpt lat="45.86362" lon="2.98638">
        <ele>897</ele>
        <time>2015-10-17T20:36:30Z</time>
      </trkpt>
      <trkpt lat="45.86347" lon="2.98652">
        <ele>897</ele>
        <time>2015-10-17T20:38:30Z</time>
      </trkpt>
      <trkpt lat="45.86337" lon="2.98668">
        <ele>896</ele>
        <time>2015-10-17T20:40:30Z</time>
      </trkpt>
      <trkpt lat="45.86319" lon="2.98681">
        <ele>902</ele>
        <time>2015-10-17T20:42:30Z</time>
      </trkpt>
      <trkpt lat="45.86293" lon="2.98673">
        <ele>913</ele>
        <time>2015-10-17T20:44:30Z</time>
      </trkpt>
      <trkpt lat="45.8627" lon="2.98663">
        <ele>923</ele>
        <time>2015-10-17T20:46:30Z</time>
      </trkpt>
      <trkpt lat="45.86252" lon="2.98656">
        <ele>931</ele>
        <time>2015-10-17T20:48:30Z</time>
      </trkpt>
      <trkpt lat="45.86235" lon="2.98648">
        <ele>935</ele>
        <time>2015-10-17T20:50:30Z</time>
      </trkpt>
      <trkpt lat="45.86225" lon="2.98646">
        <ele>936</ele>
        <time>2015-10-17T20:52:30Z</time>
      </trkpt>
      <trkpt lat="45.86205" lon="2.98627">
        <ele>938</ele>
        <time>2015-10-17T20:54:30Z</time>
      </trkpt>
      <trkpt lat="45.86176" lon="2.98607">
        <ele>938</ele>
        <time>2015-10-17T20:56:30Z</time>
      </trkpt>
      <trkpt lat="45.86164" lon="2.98589">
        <ele>935</ele>
        <time>2015-10-17T20:58:30Z</time>
      </trkpt>
      <trkpt lat="45.86152" lon="2.98575">
        <ele>935</ele>
        <time>2015-10-17T21:00:30Z</time>
      </trkpt>
      <trkpt lat="45.86139" lon="2.98562">
        <ele>935</ele>
        <time>2015-10-17T21:02:30Z</time>
      </trkpt>
      <trkpt lat="45.86115" lon="2.98555">
        <ele>933</ele>
        <time>2015-10-17T21:04:30Z</time>
      </trkpt>
      <trkpt lat="45.86087" lon="2.98548">
        <ele>931</ele>
        <time>2015-10-17T21:06:30Z</time>
      </trkpt>
      <trkpt lat="45.86055" lon="2.98546">
        <ele>935</ele>
        <time>2015-10-17T21:08:30Z</time>
      </trkpt>
      <trkpt lat="45.86037" lon="2.98547">
        <ele>937</ele>
        <time>2015-10-17T21:10:30Z</time>
      </trkpt>
      <trkpt lat="45.86019" lon="2.98563">
        <ele>937</ele>
        <time>2015-10-17T21:12:30Z</time>
      </trkpt>
      <trkpt lat="45.86007" lon="2.98588">
        <ele>936</ele>
        <time>2015-10-17T21:14:30Z</time>
      </trkpt>
      <trkpt lat="45.85996" lon="2.9862">
        <ele>940</ele>
        <time>2015-10-17T21:16:30Z</time>
      </trkpt>
      <trkpt lat="45.85987" lon="2.98648">
        <ele>944</ele>
        <time>2015-10-17T21:18:30Z</time>
      </trkpt>
      <trkpt lat="45.85963" lon="2.98685">
        <ele>949</ele>
        <time>2015-10-17T21:20:30Z</time>
      </trkpt>
      <trkpt lat="45.8595" lon="2.98697">
        <ele>951</ele>
        <time>2015-10-17T21:22:30Z</time>
      </trkpt>
      <trkpt lat="45.85941" lon="2.98705">
        <ele>952</ele>
        <time>2015-10-17T21:24:30Z</time>
      </trkpt>
      <trkpt lat="45.85932" lon="2.98674">
        <ele>952</ele>
        <time>2015-10-17T21:26:30Z</time>
      </trkpt>
      <trkpt lat="45.85922" lon="2.98653">
        <ele>954</ele>
        <time>2015-10-17T21:28:30Z</time>
      </trkpt>
      <trkpt lat="45.85919" lon="2.98626">
        <ele>955</ele>
        <time>2015-10-17T21:30:30Z</time>
      </trkpt>
      <trkpt lat="45.85919" lon="2.98602">
        <ele>957</ele>
        <time>2015-10-17T21:32:30Z</time>
      </trkpt>
      <trkpt lat="45.85909" lon="2.9859">
        <ele>956</ele>
        <time>2015-10-17T21:34:30Z</time>
      </trkpt>
      <trkpt lat="45.85903" lon="2.98559">
        <ele>958</ele>
        <time>2015-10-17T21:36:30Z</time>
      </trkpt>
      <trkpt lat="45.85896" lon="2.9853">
        <ele>960</ele>
        <time>2015-10-17T21:38:30Z</time>
      </trkpt>
      <trkpt lat="45.85887" lon="2.98481">
        <ele>963</ele>
        <time>2015-10-17T21:40:30Z</time>
      </trkpt>
      <trkpt lat="45.85881" lon="2.98451">
        <ele>963</ele>
        <time>2015-10-17T21:42:30Z</time>
      </trkpt>
      <trkpt lat="45.85883" lon="2.9843">
        <ele>965</ele>
        <time>2015-10-17T21:44:30Z</time>
      </trkpt>
      <trkpt lat="45.85861" lon="2.98413">
        <ele>959</ele>
        <time>2015-10-17T21:46:30Z</time>
      </trkpt>
      <trkpt lat="45.85842" lon="2.98389">
        <ele>952</ele>
        <time>2015-10-17T21:48:30Z</time>
      </trkpt>
      <trkpt lat="45.85825" lon="2.98363">
        <ele>947</ele>
        <time>2015-10-17T21:50:30Z</time>
      </trkpt>
      <trkpt lat="45.85814" lon="2.98343">
        <ele>943</ele>
        <time>2015-10-17T21:52:30Z</time>
      </trkpt>
      <trkpt lat="45.85801" lon="2.98304">
        <ele>936</ele>
        <time>2015-10-17T21:54:30Z</time>
      </trkpt>
      <trkpt lat="45.85799" lon="2.98257">
        <ele>931</ele>
        <time>2015-10-17T21:56:30Z</time>
      </trkpt>
      <trkpt lat="45.85801" lon="2.98223">
        <ele>929</ele>
        <time>2015-10-17T21:58:30Z</time>
      </trkpt>
      <trkpt lat="45.85806" lon="2.98209">
        <ele>929</ele>
        <time>2015-10-17T22:00:30Z</time>
      </trkpt>
      <trkpt lat="45.85821" lon="2.98192">
        <ele>931</ele>
        <time>2015-10-17T22:02:30Z</time>
      </trkpt>
      <trkpt lat="45.85841" lon="2.98171">
        <ele>933</ele>
        <time>2015-10-17T22:04:30Z</time>
      </trkpt>
      <trkpt lat="45.85857" lon="2.98151">
        <ele>930</ele>
        <time>2015-10-17T22:06:30Z</time>
      </trkpt>
      <trkpt lat="45.85869" lon="2.98136">
        <ele>928</ele>
        <time>2015-10-17T22:08:30Z</time>
      </trkpt>
      <trkpt lat="45.85874" lon="2.98123">
        <ele>925</ele>
        <time>2015-10-17T22:10:30Z</time>
      </trkpt>
      <trkpt lat="45.85872" lon="2.98106">
        <ele>921</ele>
        <time>2015-10-17T22:12:30Z</time>
      </trkpt>
      <trkpt lat="45.8586" lon="2.98079">
        <ele>915</ele>
        <time>2015-10-17T22:14:30Z</time>
      </trkpt>
      <trkpt lat="45.85848" lon="2.98066">
        <ele>912</ele>
        <time>2015-10-17T22:16:30Z</time>
      </trkpt>
      <trkpt lat="45.8583" lon="2.98053">
        <ele>908</ele>
        <time>2015-10-17T22:18:30Z</time>
      </trkpt>
      <trkpt lat="45.85812" lon="2.98039">
        <ele>903</ele>
        <time>2015-10-17T22:20:30Z</time>
      </trkpt>
      <trkpt lat="45.85795" lon="2.9803">
        <ele>899</ele>
        <time>2015-10-17T22:22:30Z</time>
      </trkpt>
      <trkpt lat="45.85783" lon="2.98028">
        <ele>898</ele>
        <time>2015-10-17T22:24:30Z</time>
      </trkpt>
      <trkpt lat="45.85768" lon="2.98038">
        <ele>898</ele>
        <time>2015-10-17T22:26:30Z</time>
      </trkpt>
      <trkpt lat="45.85755" lon="2.98025">
        <ele>895</ele>
        <time>2015-10-17T22:28:30Z</time>
      </trkpt>
      <trkpt lat="45.85739" lon="2.98031">
        <ele>894</ele>
        <time>2015-10-17T22:30:30Z</time>
      </trkpt>
      <trkpt lat="45.85725" lon="2.98039">
        <ele>893</ele>
        <time>2015-10-17T22:32:30Z</time>
      </trkpt>
      <trkpt lat="45.85715" lon="2.9806">
        <ele>894</ele>
        <time>2015-10-17T22:34:30Z</time>
      </trkpt>
      <trkpt lat="45.85698" lon="2.98074">
        <ele>892</ele>
        <time>2015-10-17T22:36:30Z</time>
      </trkpt>
      <trkpt lat="45.85679" lon="2.98091">
        <ele>890</ele>
        <time>2015-10-17T22:38:30Z</time>
      </trkpt>
      <trkpt lat="45.85665" lon="2.98109">
        <ele>888</ele>
        <time>2015-10-17T22:40:30Z</time>
      </trkpt>
      <trkpt lat="45.85651" lon="2.98114">
        <ele>887</ele>
        <time>2015-10-17T22:42:30Z</time>
      </trkpt>
      <trkpt lat="45.85662" lon="2.98062">
        <ele>888</ele>
        <time>2015-10-17T22:44:30Z</time>
      </trkpt>
      <trkpt lat="45.85661" lon="2.98045">
        <ele>888</ele>
        <time>2015-10-17T22:46:30Z</time>
      </trkpt>
      <trkpt lat="45.8565" lon="2.98019">
        <ele>889</ele>
        <time>2015-10-17T22:48:30Z</time>
      </trkpt>
      <trkpt lat="45.85628" lon="2.97962">
        <ele>893</ele>
        <time>2015-10-17T22:50:30Z</time>
      </trkpt>
      <trkpt lat="45.85612" lon="2.9795">
        <ele>895</ele>
        <time>2015-10-17T22:52:30Z</time>
      </trkpt>
      <trkpt lat="45.85598" lon="2.97946">
        <ele>897</ele>
        <time>2015-10-17T22:54:30Z</time>
      </trkpt>
      <trkpt lat="45.85579" lon="2.97912">
        <ele>900</ele>
        <time>2015-10-17T22:56:30Z</time>
      </trkpt>
      <trkpt lat="45.85559" lon="2.97894">
        <ele>903</ele>
        <time>2015-10-17T22:58:30Z</time>
      </trkpt>
      <trkpt lat="45.85525" lon="2.97874">
        <ele>908</ele>
        <time>2015-10-17T23:00:30Z</time>
      </trkpt>
      <trkpt lat="45.85495" lon="2.97843">
        <ele>910</ele>
        <time>2015-10-17T23:02:30Z</time>
      </trkpt>
      <trkpt lat="45.8545" lon="2.97829">
        <ele>915</ele>
        <time>2015-10-17T23:04:30Z</time>
      </trkpt>
      <trkpt lat="45.85436" lon="2.97817">
        <ele>916</ele>
        <time>2015-10-17T23:06:30Z</time>
      </trkpt>
      <trkpt lat="45.85402" lon="2.97802">
        <ele>919</ele>
        <time>2015-10-17T23:08:30Z</time>
      </trkpt>
      <trkpt lat="45.85374" lon="2.97795">
        <ele>920</ele>
        <time>2015-10-17T23:10:30Z</time>
      </trkpt>
      <trkpt lat="45.85339" lon="2.97735">
        <ele>927</ele>
        <time>2015-10-17T23:12:30Z</time>
      </trkpt>
      <trkpt lat="45.85316" lon="2.9769">
        <ele>932</ele>
        <time>2015-10-17T23:14:30Z</time>
      </trkpt>
      <trkpt lat="45.85295" lon="2.97661">
        <ele>934</ele>
        <time>2015-10-17T23:16:30Z</time>
      </trkpt>
      <trkpt lat="45.85268" lon="2.97629">
        <ele>937</ele>
        <time>2015-10-17T23:18:30Z</time>
      </trkpt>
      <trkpt lat="45.85253" lon="2.97603">
        <ele>939</ele>
        <time>2015-10-17T23:20:30Z</time>
      </trkpt>
      <trkpt lat="45.85239" lon="2.97577">
        <ele>943</ele>
        <time>2015-10-17T23:22:30Z</time>
      </trkpt>
      <trkpt lat="45.85224" lon="2.9755">
        <ele>948</ele>
        <time>2015-10-17T23:24:30Z</time>
      </trkpt>
      <trkpt lat="45.85201" lon="2.97498">
        <ele>959</ele>
        <time>2015-10-17T23:26:30Z</time>
      </trkpt>
      <trkpt lat="45.85173" lon="2.97463">
        <ele>965</ele>
        <time>2015-10-17T23:28:30Z</time>
      </trkpt>
      <trkpt lat="45.85154" lon="2.9743">
        <ele>972</ele>
        <time>2015-10-17T23:30:30Z</time>
      </trkpt>
      <trkpt lat="45.85139" lon="2.97399">
        <ele>978</ele>
        <time>2015-10-17T23:32:30Z</time>
      </trkpt>
      <trkpt lat="45.85126" lon="2.97377">
        <ele>983</ele>
        <time>2015-10-17T23:34:30Z</time>
      </trkpt>
      <trkpt lat="45.85085" lon="2.97352">
        <ele>987</ele>
        <time>2015-10-17T23:36:30Z</time>
      </trkpt>
      <trkpt lat="45.85099" lon="2.97317">
        <ele>994</ele>
        <time>2015-10-17T23:38:30Z</time>
      </trkpt>
      <trkpt lat="45.85116" lon="2.97294">
        <ele>997</ele>
        <time>2015-10-17T23:40:30Z</time>
      </trkpt>
      <trkpt lat="45.85133" lon="2.97272">
        <ele>1000</ele>
        <time>2015-10-17T23:42:30Z</time>
      </trkpt>
      <trkpt lat="45.85154" lon="2.97256">
        <ele>1001</ele>
        <time>2015-10-17T23:44:30Z</time>
      </trkpt>
      <trkpt lat="45.85163" lon="2.97241">
        <ele>1002</ele>
        <time>2015-10-17T23:46:30Z</time>
      </trkpt>
      <trkpt lat="45.85178" lon="2.97197">
        <ele>1003</ele>
        <time>2015-10-17T23:48:30Z</time>
      </trkpt>
      <trkpt lat="45.85196" lon="2.97161">
        <ele>1005</ele>
        <time>2015-10-17T23:50:30Z</time>
      </trkpt>
      <trkpt lat="45.85209" lon="2.97137">
        <ele>1006</ele>
        <time>2015-10-17T23:52:30Z</time>
      </trkpt>
      <trkpt lat="45.85217" lon="2.97106">
        <ele>1007</ele>
        <time>2015-10-17T23:54:30Z</time>
      </trkpt>
      <trkpt lat="45.85233" lon="2.97052">
        <ele>1008</ele>
        <time>2015-10-17T23:56:30Z</time>
      </trkpt>
      <trkpt lat="45.85243" lon="2.97032">
        <ele>1009</ele>
        <time>2015-10-17T23:58:30Z</time>
      </trkpt>
      <trkpt lat="45.85247" lon="2.97002">
        <ele>1010</ele>
        <time>2015-10-18T00:00:30Z</time>
      </trkpt>
      <trkpt lat="45.85251" lon="2.96963">
        <ele>1012</ele>
        <time>2015-10-18T00:02:30Z</time>
      </trkpt>
      <trkpt lat="45.85251" lon="2.96922">
        <ele>1015</ele>
        <time>2015-10-18T00:04:30Z</time>
      </trkpt>
      <trkpt lat="45.85249" lon="2.96904">
        <ele>1015</ele>
        <time>2015-10-18T00:06:30Z</time>
      </trkpt>
      <trkpt lat="45.85239" lon="2.96877">
        <ele>1017</ele>
        <time>2015-10-18T00:08:30Z</time>
      </trkpt>
      <trkpt lat="45.85235" lon="2.96854">
        <ele>1019</ele>
        <time>2015-10-18T00:10:30Z</time>
      </trkpt>
      <trkpt lat="45.85239" lon="2.96822">
        <ele>1019</ele>
        <time>2015-10-18T00:12:30Z</time>
      </trkpt>
      <trkpt lat="45.85242" lon="2.96795">
        <ele>1020</ele>
        <time>2015-10-18T00:14:30Z</time>
      </trkpt>
      <trkpt lat="45.85248" lon="2.96771">
        <ele>1020</ele>
        <time>2015-10-18T00:16:30Z</time>
      </trkpt>
      <trkpt lat="45.85261" lon="2.96756">
        <ele>1018</ele>
        <time>2015-10-18T00:18:30Z</time>
      </trkpt>
      <trkpt lat="45.85274" lon="2.96741">
        <ele>1017</ele>
        <time>2015-10-18T00:20:30Z</time>
      </trkpt>
      <trkpt lat="45.85285" lon="2.96718">
        <ele>1016</ele>
        <time>2015-10-18T00:22:30Z</time>
      </trkpt>
      <trkpt lat="45.85289" lon="2.96692">
        <ele>1016</ele>
        <time>2015-10-18T00:24:30Z</time>
      </trkpt>
      <trkpt lat="45.85292" lon="2.96668">
        <ele>1017</ele>
        <time>2015-10-18T00:26:30Z</time>
      </trkpt>
      <trkpt lat="45.85295" lon="2.9665">
        <ele>1017</ele>
        <time>2015-10-18T00:28:30Z</time>
      </trkpt>
      <trkpt lat="45.85286" lon="2.96632">
        <ele>1019</ele>
        <time>2015-10-18T00:30:30Z</time>
      </trkpt>
      <trkpt lat="45.85274" lon="2.9662">
        <ele>1020</ele>
        <time>2015-10-18T00:32:30Z</time>
      </trkpt>
      <trkpt lat="45.85265" lon="2.96606">
        <ele>1022</ele>
        <time>2015-10-18T00:34:30Z</time>
      </trkpt>
      <trkpt lat="45.85255" lon="2.96575">
        <ele>1025</ele>
        <time>2015-10-18T00:36:30Z</time>
      </trkpt>
      <trkpt lat="45.8524" lon="2.96536">
        <ele>1029</ele>
        <time>2015-10-18T00:38:30Z</time>
      </trkpt>
      <trkpt lat="45.85223" lon="2.96487">
        <ele>1034</ele>
        <time>2015-10-18T00:40:30Z</time>
      </trkpt>
      <trkpt lat="45.85211" lon="2.96451">
        <ele>1037</ele>
        <time>2015-10-18T00:42:30Z</time>
      </trkpt>
      <trkpt lat="45.85189" lon="2.96428">
        <ele>1037</ele>
        <time>2015-10-18T00:44:30Z</time>
      </trkpt>
      <trkpt lat="45.85174" lon="2.96413">
        <ele>1037</ele>
        <time>2015-10-18T00:46:30Z</time>
      </trkpt>
      <trkpt lat="45.85162" lon="2.96397">
        <ele>1038</ele>
        <time>2015-10-18T00:48:30Z</time>
      </trkpt>
      <trkpt lat="45.85155" lon="2.96424">
        <ele>1040</ele>
        <time>2015-10-18T00:50:30Z</time>
      </trkpt>
      <trkpt lat="45.85147" lon="2.96456">
        <ele>1044</ele>
        <time>2015-10-18T00:52:30Z</time>
      </trkpt>
      <trkpt lat="45.85138" lon="2.9648">
        <ele>1048</ele>
        <time>2015-10-18T00:54:30Z</time>
      </trkpt>
      <trkpt lat="45.85125" lon="2.9651">
        <ele>1053</ele>
        <time>2015-10-18T00:56:30Z</time>
      </trkpt>
      <trkpt lat="45.85121" lon="2.96534">
        <ele>1056</ele>
        <time>2015-10-18T00:58:30Z</time>
      </trkpt>
      <trkpt lat="45.85121" lon="2.96562">
        <ele>1059</ele>
        <time>2015-10-18T01:00:30Z</time>
      </trkpt>
      <trkpt lat="45.85109" lon="2.96586">
        <ele>1064</ele>
        <time>2015-10-18T01:02:30Z</time>
      </trkpt>
      <trkpt lat="45.85092" lon="2.96605">
        <ele>1069</ele>
        <time>2015-10-18T01:04:30Z</time>
      </trkpt>
      <trkpt lat="45.8507" lon="2.96626">
        <ele>1076</ele>
        <time>2015-10-18T01:06:30Z</time>
      </trkpt>
      <trkpt lat="45.85057" lon="2.9665">
        <ele>1080</ele>
        <time>2015-10-18T01:08:30Z</time>
      </trkpt>
      <trkpt lat="45.85041" lon="2.96668">
        <ele>1085</ele>
        <time>2015-10-18T01:10:30Z</time>
      </trkpt>
      <trkpt lat="45.8502" lon="2.96686">
        <ele>1090</ele>
        <time>2015-10-18T01:12:30Z</time>
      </trkpt>
      <trkpt lat="45.84992" lon="2.96704">
        <ele>1098</ele>
        <time>2015-10-18T01:14:30Z</time>
      </trkpt>
      <trkpt lat="45.84964" lon="2.96727">
        <ele>1103</ele>
        <time>2015-10-18T01:16:30Z</time>
      </trkpt>
      <trkpt lat="45.84941" lon="2.96737">
        <ele>1109</ele>
        <time>2015-10-18T01:18:30Z</time>
      </trkpt>
      <trkpt lat="45.84918" lon="2.96749">
        <ele>1115</ele>
        <time>2015-10-18T01:20:30Z</time>
      </trkpt>
      <trkpt lat="45.84909" lon="2.96771">
        <ele>1116</ele>
        <time>2015-10-18T01:22:30Z</time>
      </trkpt>
      <trkpt lat="45.84896" lon="2.96802">
        <ele>1118</ele>
        <time>2015-10-18T01:24:30Z</time>
      </trkpt>
      <trkpt lat="45.84887" lon="2.96818">
        <ele>1121</ele>
        <time>2015-10-18T01:26:30Z</time>
      </trkpt>
      <trkpt lat="45.8487" lon="2.96845">
        <ele>1125</ele>
        <time>2015-10-18T01:28:30Z</time>
      </trkpt>
      <trkpt lat="45.84851" lon="2.96861">
        <ele>1129</ele>
        <time>2015-10-18T01:30:30Z</time>
      </trkpt>
      <trkpt lat="45.84819" lon="2.96891">
        <ele>1136</ele>
        <time>2015-10-18T01:32:30Z</time>
      </trkpt>
      <trkpt lat="45.84795" lon="2.96882">
        <ele>1137</ele>
        <time>2015-10-18T01:34:30Z</time>
      </trkpt>
      <trkpt lat="45.84758" lon="2.96859">
        <ele>1139</ele>
        <time>2015-10-18T01:36:30Z</time>
      </trkpt>
      <trkpt lat="45.84712" lon="2.96808">
        <ele>1138</ele>
        <time>2015-10-18T01:38:30Z</time>
      </trkpt>
      <trkpt lat="45.84696" lon="2.96782">
        <ele>1140</ele>
        <time>2015-10-18T01:40:30Z</time>
      </trkpt>
      <trkpt lat="45.84686" lon="2.96754">
        <ele>1143</ele>
        <time>2015-10-18T01:42:30Z</time>
      </trkpt>
      <trkpt lat="45.84679" lon="2.96731">
        <ele>1145</ele>
        <time>2015-10-18T01:44:30Z</time>
      </trkpt>
      <trkpt lat="45.84668" lon="2.96698">
        <ele>1148</ele>
        <time>2015-10-18T01:46:30Z</time>
      </trkpt>
      <trkpt lat="45.84662" lon="2.96667">
        <ele>1149</ele>
        <time>2015-10-18T01:48:30Z</time>
      </trkpt>
      <trkpt lat="45.84644" lon="2.96662">
        <ele>1146</ele>
        <time>2015-10-18T01:50:30Z</time>
      </trkpt>
      <trkpt lat="45.84631" lon="2.96654">
        <ele>1144</ele>
        <time>2015-10-18T01:52:30Z</time>
      </trkpt>
      <trkpt lat="45.84603" lon="2.96631">
        <ele>1138</ele>
        <time>2015-10-18T01:54:30Z</time>
      </trkpt>
      <trkpt lat="45.84594" lon="2.96611">
        <ele>1137</ele>
        <time>2015-10-18T01:56:30Z</time>
      </trkpt>
      <trkpt lat="45.84591" lon="2.96592">
        <ele>1136</ele>
        <time>2015-10-18T01:58:30Z</time>
      </trkpt>
      <trkpt lat="45.84561" lon="2.96577">
        <ele>1132</ele>
        <time>2015-10-18T02:00:30Z</time>
      </trkpt>
      <trkpt lat="45.84548" lon="2.96558">
        <ele>1129</ele>
        <time>2015-10-18T02:02:30Z</time>
      </trkpt>
      <trkpt lat="45.84535" lon="2.96549">
        <ele>1127</ele>
        <time>2015-10-18T02:04:30Z</time>
      </trkpt>
      <trkpt lat="45.84513" lon="2.96545">
        <ele>1126</ele>
        <time>2015-10-18T02:06:30Z</time>
      </trkpt>
      <trkpt lat="45.84493" lon="2.96541">
        <ele>1127</ele>
        <time>2015-10-18T02:08:30Z</time>
      </trkpt>
      <trkpt lat="45.8448" lon="2.96535">
        <ele>1129</ele>
        <time>2015-10-18T02:10:30Z</time>
      </trkpt>
      <trkpt lat="45.84471" lon="2.9651">
        <ele>1130</ele>
        <time>2015-10-18T02:12:30Z</time>
      </trkpt>
      <trkpt lat="45.84471" lon="2.96487">
        <ele>1128</ele>
        <time>2015-10-18T02:14:30Z</time>
      </trkpt>
      <trkpt lat="45.84458" lon="2.96465">
        <ele>1128</ele>
        <time>2015-10-18T02:16:30Z</time>
      </trkpt>
      <trkpt lat="45.84447" lon="2.96453">
        <ele>1129</ele>
        <time>2015-10-18T02:18:30Z</time>
      </trkpt>
      <trkpt lat="45.84432" lon="2.96439">
        <ele>1130</ele>
        <time>2015-10-18T02:20:30Z</time>
      </trkpt>
      <trkpt lat="45.84417" lon="2.96447">
        <ele>1134</ele>
        <time>2015-10-18T02:22:30Z</time>
      </trkpt>
      <trkpt lat="45.84399" lon="2.96455">
        <ele>1135</ele>
        <time>2015-10-18T02:24:30Z</time>
      </trkpt>
      <trkpt lat="45.84388" lon="2.96462">
        <ele>1135</ele>
        <time>2015-10-18T02:26:30Z</time>
      </trkpt>
      <trkpt lat="45.84394" lon="2.96475">
        <ele>1137</ele>
        <time>2015-10-18T02:28:30Z</time>
      </trkpt>
      <trkpt lat="45.84387" lon="2.96504">
        <ele>1139</ele>
        <time>2015-10-18T02:30:30Z</time>
      </trkpt>
      <trkpt lat="45.84377" lon="2.96512">
        <ele>1138</ele>
        <time>2015-10-18T02:32:30Z</time>
      </trkpt>
      <trkpt lat="45.8436" lon="2.96517">
        <ele>1137</ele>
        <time>2015-10-18T02:34:30Z</time>
      </trkpt>
      <trkpt lat="45.84339" lon="2.96514">
        <ele>1137</ele>
        <time>2015-10-18T02:36:30Z</time>
      </trkpt>
      <trkpt lat="45.84326" lon="2.96509">
        <ele>1136</ele>
        <time>2015-10-18T02:38:30Z</time>
      </trkpt>
      <trkpt lat="45.84313" lon="2.965">
        <ele>1136</ele>
        <time>2015-10-18T02:40:30Z</time>
      </trkpt>
      <trkpt lat="45.8427" lon="2.96464">
        <ele>1132</ele>
        <time>2015-10-18T02:42:30Z</time>
      </trkpt>
      <trkpt lat="45.84245" lon="2.96436">
        <ele>1133</ele>
        <time>2015-10-18T02:44:30Z</time>
      </trkpt>
      <trkpt lat="45.84227" lon="2.96419">
        <ele>1133</ele>
        <time>2015-10-18T02:46:30Z</time>
      </trkpt>
      <trkpt lat="45.8421" lon="2.96395">
        <ele>1134</ele>
        <time>2015-10-18T02:48:30Z</time>
      </trkpt>
      <trkpt lat="45.84192" lon="2.9637">
        <ele>1135</ele>
        <time>2015-10-18T02:50:30Z</time>
      </trkpt>
      <trkpt lat="45.84174" lon="2.96352">
        <ele>1137</ele>
        <time>2015-10-18T02:52:30Z</time>
      </trkpt>
      <trkpt lat="45.84144" lon="2.96331">
        <ele>1133</ele>
        <time>2015-10-18T02:54:30Z</time>
      </trkpt>
      <trkpt lat="45.8411" lon="2.96293">
        <ele>1122</ele>
        <time>2015-10-18T02:56:30Z</time>
      </trkpt>
      <trkpt lat="45.84084" lon="2.96269">
        <ele>1113</ele>
        <time>2015-10-18T02:58:30Z</time>
      </trkpt>
      <trkpt lat="45.8405" lon="2.96241">
        <ele>1107</ele>
        <time>2015-10-18T03:00:30Z</time>
      </trkpt>
      <trkpt lat="45.84014" lon="2.9623">
        <ele>1100</ele>
        <time>2015-10-18T03:02:30Z</time>
      </trkpt>
      <trkpt lat="45.83971" lon="2.96215">
        <ele>1093</ele>
        <time>2015-10-18T03:04:30Z</time>
      </trkpt>
      <trkpt lat="45.83955" lon="2.96206">
        <ele>1090</ele>
        <time>2015-10-18T03:06:30Z</time>
      </trkpt>
      <trkpt lat="45.83896" lon="2.96224">
        <ele>1084</ele>
        <time>2015-10-18T03:08:30Z</time>
      </trkpt>
      <trkpt lat="45.83861" lon="2.96224">
        <ele>1078</ele>
        <time>2015-10-18T03:10:30Z</time>
      </trkpt>
      <trkpt lat="45.83811" lon="2.96224">
        <ele>1069</ele>
        <time>2015-10-18T03:12:30Z</time>
      </trkpt>
      <trkpt lat="45.83761" lon="2.96211">
        <ele>1058</ele>
        <time>2015-10-18T03:14:30Z</time>
      </trkpt>
      <trkpt lat="45.83745" lon="2.962">
        <ele>1054</ele>
        <time>2015-10-18T03:16:30Z</time>
      </trkpt>
      <trkpt lat="45.83738" lon="2.96155">
        <ele>1050</ele>
        <time>2015-10-18T03:18:30Z</time>
      </trkpt>
      <trkpt lat="45.83733" lon="2.96126">
        <ele>1047</ele>
        <time>2015-10-18T03:20:30Z</time>
      </trkpt>
      <trkpt lat="45.83732" lon="2.9608">
        <ele>1043</ele>
        <time>2015-10-18T03:22:30Z</time>
      </trkpt>
      <trkpt lat="45.83728" lon="2.96042">
        <ele>1039</ele>
        <time>2015-10-18T03:24:30Z</time>
      </trkpt>
      <trkpt lat="45.83723" lon="2.9602">
        <ele>1037</ele>
        <time>2015-10-18T03:26:30Z</time>
      </trkpt>
      <trkpt lat="45.83706" lon="2.96">
        <ele>1034</ele>
        <time>2015-10-18T03:28:30Z</time>
      </trkpt>
      <trkpt lat="45.8368" lon="2.95978">
        <ele>1031</ele>
        <time>2015-10-18T03:30:30Z</time>
      </trkpt>
      <trkpt lat="45.83669" lon="2.95969">
        <ele>1031</ele>
        <time>2015-10-18T03:32:30Z</time>
      </trkpt>
      <trkpt lat="45.83686" lon="2.95923">
        <ele>1028</ele>
        <time>2015-10-18T03:34:30Z</time>
      </trkpt>
      <trkpt lat="45.83675" lon="2.95931">
        <ele>1029</ele>
        <time>2015-10-18T03:36:30Z</time>
      </trkpt>
      <trkpt lat="45.83664" lon="2.95936">
        <ele>1029</ele>
        <time>2015-10-18T03:38:30Z</time>
      </trkpt>
      <trkpt lat="45.83648" lon="2.95928">
        <ele>1029</ele>
        <time>2015-10-18T03:40:30Z</time>
      </trkpt>
      <trkpt lat="45.83627" lon="2.95918">
        <ele>1031</ele>
        <time>2015-10-18T03:42:30Z</time>
      </trkpt>
      <trkpt lat="45.83602" lon="2.95903">
        <ele>1034</ele>
        <time>2015-10-18T03:44:30Z</time>
      </trkpt>
      <trkpt lat="45.83576" lon="2.95886">
        <ele>1038</ele>
        <time>2015-10-18T03:46:30Z</time>
      </trkpt>
      <trkpt lat="45.83555" lon="2.9587">
        <ele>1042</ele>
        <time>2015-10-18T03:48:30Z</time>
      </trkpt>
      <trkpt lat="45.83592" lon="2.95799">
        <ele>1045</ele>
        <time>2015-10-18T03:50:30Z</time>
      </trkpt>
      <trkpt lat="45.83607" lon="2.95751">
        <ele>1045</ele>
        <time>2015-10-18T03:52:30Z</time>
      </trkpt>
      <trkpt lat="45.83627" lon="2.95707">
        <ele>1042</ele>
        <time>2015-10-18T03:54:30Z</time>
      </trkpt>
      <trkpt lat="45.83669" lon="2.95622">
        <ele>1035</ele>
        <time>2015-10-18T03:56:30Z</time>
      </trkpt>
      <trkpt lat="45.83683" lon="2.95597">
        <ele>1034</ele>
        <time>2015-10-18T03:58:30Z</time>
      </trkpt>
      <trkpt lat="45.83671" lon="2.95573">
        <ele>1035</ele>
        <time>2015-10-18T04:00:30Z</time>
      </trkpt>
      <trkpt lat="45.83662" lon="2.95549">
        <ele>1034</ele>
        <time>2015-10-18T04:02:30Z</time>
      </trkpt>
      <trkpt lat="45.83629" lon="2.95549">
        <ele>1039</ele>
        <time>2015-10-18T04:04:30Z</time>
      </trkpt>
      <trkpt lat="45.83611" lon="2.95545">
        <ele>1042</ele>
        <time>2015-10-18T04:06:30Z</time>
      </trkpt>
      <trkpt lat="45.83591" lon="2.95531">
        <ele>1043</ele>
        <time>2015-10-18T04:08:30Z</time>
      </trkpt>
      <trkpt lat="45.83575" lon="2.95513">
        <ele>1041</ele>
        <time>2015-10-18T04:10:30Z</time>
      </trkpt>
      <trkpt lat="45.83551" lon="2.95494">
        <ele>1040</ele>
        <time>2015-10-18T04:12:30Z</time>
      </trkpt>
      <trkpt lat="45.83523" lon="2.95475">
        <ele>1038</ele>
        <time>2015-10-18T04:14:30Z</time>
      </trkpt>
      <trkpt lat="45.83487" lon="2.95456">
        <ele>1036</ele>
        <time>2015-10-18T04:16:30Z</time>
      </trkpt>
      <trkpt lat="45.8347" lon="2.95441">
        <ele>1033</ele>
        <time>2015-10-18T04:18:30Z</time>
      </trkpt>
      <trkpt lat="45.83448" lon="2.95435">
        <ele>1033</ele>
        <time>2015-10-18T04:20:30Z</time>
      </trkpt>
      <trkpt lat="45.83428" lon="2.95431">
        <ele>1034</ele>
        <time>2015-10-18T04:22:30Z</time>
      </trkpt>
      <trkpt lat="45.83416" lon="2.95412">
        <ele>1031</ele>
        <time>2015-10-18T04:24:30Z</time>
      </trkpt>
      <trkpt lat="45.83405" lon="2.95401">
        <ele>1028</ele>
        <time>2015-10-18T04:26:30Z</time>
      </trkpt>
      <trkpt lat="45.83388" lon="2.95398">
        <ele>1027</ele>
        <time>2015-10-18T04:28:30Z</time>
      </trkpt>
      <trkpt lat="45.8335" lon="2.95405">
        <ele>1025</ele>
        <time>2015-10-18T04:30:30Z</time>
      </trkpt>
      <trkpt lat="45.83319" lon="2.9541">
        <ele>1024</ele>
        <time>2015-10-18T04:32:30Z</time>
      </trkpt>
      <trkpt lat="45.83301" lon="2.95415">
        <ele>1024</ele>
        <time>2015-10-18T04:34:30Z</time>
      </trkpt>
      <trkpt lat="45.83268" lon="2.95425">
        <ele>1026</ele>
        <time>2015-10-18T04:36:30Z</time>
      </trkpt>
      <trkpt lat="45.83235" lon="2.95429">
        <ele>1026</ele>
        <time>2015-10-18T04:38:30Z</time>
      </trkpt>
      <trkpt lat="45.83209" lon="2.95435">
        <ele>1026</ele>
        <time>2015-10-18T04:40:30Z</time>
      </trkpt>
      <trkpt lat="45.83185" lon="2.9544">
        <ele>1027</ele>
        <time>2015-10-18T04:42:30Z</time>
      </trkpt>
      <trkpt lat="45.83167" lon="2.9544">
        <ele>1026</ele>
        <time>2015-10-18T04:44:30Z</time>
      </trkpt>
      <trkpt lat="45.83153" lon="2.95458">
        <ele>1029</ele>
        <time>2015-10-18T04:46:30Z</time>
      </trkpt>
      <trkpt lat="45.83136" lon="2.95482">
        <ele>1032</ele>
        <time>2015-10-18T04:48:30Z</time>
      </trkpt>
      <trkpt lat="45.83123" lon="2.955">
        <ele>1034</ele>
        <time>2015-10-18T04:50:30Z</time>
      </trkpt>
      <trkpt lat="45.83108" lon="2.95527">
        <ele>1036</ele>
        <time>2015-10-18T04:52:30Z</time>
      </trkpt>
      <trkpt lat="45.83108" lon="2.95464">
        <ele>1033</ele>
        <time>2015-10-18T04:54:30Z</time>
      </trkpt>
      <trkpt lat="45.83101" lon="2.95425">
        <ele>1032</ele>
        <time>2015-10-18T04:56:30Z</time>
      </trkpt>
      <trkpt lat="45.83075" lon="2.95364">
        <ele>1032</ele>
        <time>2015-10-18T04:58:30Z</time>
      </trkpt>
      <trkpt lat="45.83065" lon="2.95338">
        <ele>1032</ele>
        <time>2015-10-18T05:00:30Z</time>
      </trkpt>
      <trkpt lat="45.83055" lon="2.95301">
        <ele>1031</ele>
        <time>2015-10-18T05:02:30Z</time>
      </trkpt>
      <trkpt lat="45.83038" lon="2.95239">
        <ele>1029</ele>
        <time>2015-10-18T05:04:30Z</time>
      </trkpt>
      <trkpt lat="45.83029" lon="2.952">
        <ele>1029</ele>
        <time>2015-10-18T05:06:30Z</time>
      </trkpt>
      <trkpt lat="45.83017" lon="2.95159">
        <ele>1029</ele>
        <time>2015-10-18T05:08:30Z</time>
      </trkpt>
      <trkpt lat="45.83011" lon="2.95128">
        <ele>1027</ele>
        <time>2015-10-18T05:10:30Z</time>
      </trkpt>
      <trkpt lat="45.82998" lon="2.95093">
        <ele>1026</ele>
        <time>2015-10-18T05:12:30Z</time>
      </trkpt>
      <trkpt lat="45.82985" lon="2.95064">
        <ele>1025</ele>
        <time>2015-10-18T05:14:30Z</time>
      </trkpt>
      <trkpt lat="45.82958" lon="2.95065">
        <ele>1030</ele>
        <time>2015-10-18T05:16:30Z</time>
      </trkpt>
      <trkpt lat="45.82936" lon="2.95082">
        <ele>1035</ele>
        <time>2015-10-18T05:18:30Z</time>
      </trkpt>
      <trkpt lat="45.82912" lon="2.95103">
        <ele>1041</ele>
        <time>2015-10-18T05:20:30Z</time>
      </trkpt>
      <trkpt lat="45.82887" lon="2.95116">
        <ele>1047</ele>
        <time>2015-10-18T05:22:30Z</time>
      </trkpt>
      <trkpt lat="45.82866" lon="2.95129">
        <ele>1052</ele>
        <time>2015-10-18T05:24:30Z</time>
      </trkpt>
      <trkpt lat="45.82836" lon="2.95129">
        <ele>1057</ele>
        <time>2015-10-18T05:26:30Z</time>
      </trkpt>
      <trkpt lat="45.82783" lon="2.95137">
        <ele>1066</ele>
        <time>2015-10-18T05:28:30Z</time>
      </trkpt>
      <trkpt lat="45.82762" lon="2.95147">
        <ele>1069</ele>
        <time>2015-10-18T05:30:30Z</time>
      </trkpt>
      <trkpt lat="45.82739" lon="2.95166">
        <ele>1071</ele>
        <time>2015-10-18T05:32:30Z</time>
      </trkpt>
      <trkpt lat="45.82711" lon="2.95188">
        <ele>1076</ele>
        <time>2015-10-18T05:34:30Z</time>
      </trkpt>
      <trkpt lat="45.82691" lon="2.95196">
        <ele>1078</ele>
        <time>2015-10-18T05:36:30Z</time>
      </trkpt>
      <trkpt lat="45.82651" lon="2.95219">
        <ele>1081</ele>
        <time>2015-10-18T05:38:30Z</time>
      </trkpt>
      <trkpt lat="45.82635" lon="2.95198">
        <ele>1084</ele>
        <time>2015-10-18T05:40:30Z</time>
      </trkpt>
      <trkpt lat="45.82615" lon="2.95198">
        <ele>1086</ele>
        <time>2015-10-18T05:42:30Z</time>
      </trkpt>
      <trkpt lat="45.82602" lon="2.95192">
        <ele>1088</ele>
        <time>2015-10-18T05:44:30Z</time>
      </trkpt>
      <trkpt lat="45.82587" lon="2.95173">
        <ele>1089</ele>
        <time>2015-10-18T05:46:30Z</time>
      </trkpt>
      <trkpt lat="45.82553" lon="2.95151">
        <ele>1091</ele>
        <time>2015-10-18T05:48:30Z</time>
      </trkpt>
      <trkpt lat="45.82536" lon="2.95137">
        <ele>1092</ele>
        <time>2015-10-18T05:50:30Z</time>
      </trkpt>
      <trkpt lat="45.8251" lon="2.95134">
        <ele>1092</ele>
        <time>2015-10-18T05:52:30Z</time>
      </trkpt>
      <trkpt lat="45.82492" lon="2.95133">
        <ele>1093</ele>
        <time>2015-10-18T05:54:30Z</time>
      </trkpt>
      <trkpt lat="45.82475" lon="2.95128">
        <ele>1095</ele>
        <time>2015-10-18T05:56:30Z</time>
      </trkpt>
      <trkpt lat="45.82469" lon="2.95105">
        <ele>1096</ele>
        <time>2015-10-18T05:58:30Z</time>
      </trkpt>
      <trkpt lat="45.82458" lon="2.95099">
        <ele>1097</ele>
        <time>2015-10-18T06:00:30Z</time>
      </trkpt>
      <trkpt lat="45.82442" lon="2.95092">
        <ele>1098</ele>
        <time>2015-10-18T06:02:30Z</time>
      </trkpt>
      <trkpt lat="45.8243" lon="2.9509">
        <ele>1099</ele>
        <time>2015-10-18T06:04:30Z</time>
      </trkpt>
      <trkpt lat="45.82418" lon="2.95073">
        <ele>1099</ele>
        <time>2015-10-18T06:06:30Z</time>
      </trkpt>
      <trkpt lat="45.82408" lon="2.95038">
        <ele>1095</ele>
        <time>2015-10-18T06:08:30Z</time>
      </trkpt>
      <trkpt lat="45.82405" lon="2.95022">
        <ele>1094</ele>
        <time>2015-10-18T06:10:30Z</time>
      </trkpt>
      <trkpt lat="45.82392" lon="2.95026">
        <ele>1091</ele>
        <time>2015-10-18T06:12:30Z</time>
      </trkpt>
      <trkpt lat="45.82379" lon="2.95043">
        <ele>1090</ele>
        <time>2015-10-18T06:14:30Z</time>
      </trkpt>
      <trkpt lat="45.82374" lon="2.95069">
        <ele>1091</ele>
        <time>2015-10-18T06:16:30Z</time>
      </trkpt>
      <trkpt lat="45.82373" lon="2.95092">
        <ele>1092</ele>
        <time>2015-10-18T06:18:30Z</time>
      </trkpt>
      <trkpt lat="45.82376" lon="2.95119">
        <ele>1094</ele>
        <time>2015-10-18T06:20:30Z</time>
      </trkpt>
      <trkpt lat="45.82382" lon="2.95143">
        <ele>1096</ele>
        <time>2015-10-18T06:22:30Z</time>
      </trkpt>
      <trkpt lat="45.82384" lon="2.95169">
        <ele>1098</ele>
        <time>2015-10-18T06:24:30Z</time>
      </trkpt>
      <trkpt lat="45.82382" lon="2.95194">
        <ele>1099</ele>
        <time>2015-10-18T06:26:30Z</time>
      </trkpt>
      <trkpt lat="45.82385" lon="2.95228">
        <ele>1101</ele>
        <time>2015-10-18T06:28:30Z</time>
      </trkpt>
      <trkpt lat="45.82392" lon="2.95256">
        <ele>1103</ele>
        <time>2015-10-18T06:30:30Z</time>
      </trkpt>
      <trkpt lat="45.82398" lon="2.9528">
        <ele>1105</ele>
        <time>2015-10-18T06:32:30Z</time>
      </trkpt>
      <trkpt lat="45.82408" lon="2.95309">
        <ele>1109</ele>
        <time>2015-10-18T06:34:30Z</time>
      </trkpt>
      <trkpt lat="45.82424" lon="2.95336">
        <ele>1113</ele>
        <time>2015-10-18T06:36:30Z</time>
      </trkpt>
      <trkpt lat="45.82437" lon="2.95354">
        <ele>1113</ele>
        <time>2015-10-18T06:38:30Z</time>
      </trkpt>
      <trkpt lat="45.82452" lon="2.95376">
        <ele>1113</ele>
        <time>2015-10-18T06:40:30Z</time>
      </trkpt>
      <trkpt lat="45.82469" lon="2.95402">
        <ele>1114</ele>
        <time>2015-10-18T06:42:30Z</time>
      </trkpt>
      <trkpt lat="45.82473" lon="2.95463">
        <ele>1111</ele>
        <time>2015-10-18T06:44:30Z</time>
      </trkpt>
      <trkpt lat="45.82477" lon="2.95493">
        <ele>1109</ele>
        <time>2015-10-18T06:46:30Z</time>
      </trkpt>
      <trkpt lat="45.82481" lon="2.95535">
        <ele>1106</ele>
        <time>2015-10-18T06:48:30Z</time>
      </trkpt>
      <trkpt lat="45.82486" lon="2.95557">
        <ele>1104</ele>
        <time>2015-10-18T06:50:30Z</time>
      </trkpt>
      <trkpt lat="45.82494" lon="2.95624">
        <ele>1096</ele>
        <time>2015-10-18T06:52:30Z</time>
      </trkpt>
      <trkpt lat="45.82503" lon="2.95654">
        <ele>1092</ele>
        <time>2015-10-18T06:54:30Z</time>
      </trkpt>
      <trkpt lat="45.8251" lon="2.95676">
        <ele>1087</ele>
        <time>2015-10-18T06:56:30Z</time>
      </trkpt>
      <trkpt lat="45.82519" lon="2.95696">
        <ele>1083</ele>
        <time>2015-10-18T06:58:30Z</time>
      </trkpt>
      <trkpt lat="45.82531" lon="2.95712">
        <ele>1079</ele>
        <time>2015-10-18T07:00:30Z</time>
      </trkpt>
      <trkpt lat="45.82539" lon="2.95727">
        <ele>1076</ele>
        <time>2015-10-18T07:02:30Z</time>
      </trkpt>
      <trkpt lat="45.82541" lon="2.95756">
        <ele>1071</ele>
        <time>2015-10-18T07:04:30Z</time>
      </trkpt>
      <trkpt lat="45.8255" lon="2.95773">
        <ele>1068</ele>
        <time>2015-10-18T07:06:30Z</time>
      </trkpt>
      <trkpt lat="45.82554" lon="2.95787">
        <ele>1066</ele>
        <time>2015-10-18T07:08:30Z</time>
      </trkpt>
      <trkpt lat="45.82554" lon="2.95801">
        <ele>1063</ele>
        <time>2015-10-18T07:10:30Z</time>
      </trkpt>
      <trkpt lat="45.82535" lon="2.95816">
        <ele>1060</ele>
        <time>2015-10-18T07:12:30Z</time>
      </trkpt>
      <trkpt lat="45.82507" lon="2.95842">
        <ele>1053</ele>
        <time>2015-10-18T07:14:30Z</time>
      </trkpt>
      <trkpt lat="45.825" lon="2.95874">
        <ele>1046</ele>
        <time>2015-10-18T07:16:30Z</time>
      </trkpt>
      <trkpt lat="45.82487" lon="2.95906">
        <ele>1037</ele>
        <time>2015-10-18T07:18:30Z</time>
      </trkpt>
      <trkpt lat="45.82484" lon="2.95926">
        <ele>1033</ele>
        <time>2015-10-18T07:20:30Z</time>
      </trkpt>
      <trkpt lat="45.82473" lon="2.95955">
        <ele>1027</ele>
        <time>2015-10-18T07:22:30Z</time>
      </trkpt>
      <trkpt lat="45.82463" lon="2.95973">
        <ele>1022</ele>
        <time>2015-10-18T07:24:30Z</time>
      </trkpt>
      <trkpt lat="45.82444" lon="2.95986">
        <ele>1018</ele>
        <time>2015-10-18T07:26:30Z</time>
      </trkpt>
      <trkpt lat="45.82433" lon="2.96003">
        <ele>1014</ele>
        <time>2015-10-18T07:28:30Z</time>
      </trkpt>
      <trkpt lat="45.82421" lon="2.96013">
        <ele>1011</ele>
        <time>2015-10-18T07:30:30Z</time>
      </trkpt>
      <trkpt lat="45.82404" lon="2.9602">
        <ele>1008</ele>
        <time>2015-10-18T07:32:30Z</time>
      </trkpt>
      <trkpt lat="45.82395" lon="2.96029">
        <ele>1005</ele>
        <time>2015-10-18T07:34:30Z</time>
      </trkpt>
      <trkpt lat="45.82387" lon="2.96044">
        <ele>1001</ele>
        <time>2015-10-18T07:36:30Z</time>
      </trkpt>
      <trkpt lat="45.82389" lon="2.96066">
        <ele>998</ele>
        <time>2015-10-18T07:38:30Z</time>
      </trkpt>
      <trkpt lat="45.82401" lon="2.9609">
        <ele>996</ele>
        <time>2015-10-18T07:40:30Z</time>
      </trkpt>
      <trkpt lat="45.82412" lon="2.96103">
        <ele>996</ele>
        <time>2015-10-18T07:42:30Z</time>
      </trkpt>
      <trkpt lat="45.82426" lon="2.96119">
        <ele>995</ele>
        <time>2015-10-18T07:44:30Z</time>
      </trkpt>
      <trkpt lat="45.82444" lon="2.96135">
        <ele>993</ele>
        <time>2015-10-18T07:46:30Z</time>
      </trkpt>
      <trkpt lat="45.82457" lon="2.96142">
        <ele>993</ele>
        <time>2015-10-18T07:48:30Z</time>
      </trkpt>
      <trkpt lat="45.82471" lon="2.96154">
        <ele>992</ele>
        <time>2015-10-18T07:50:30Z</time>
      </trkpt>
      <trkpt lat="45.8248" lon="2.96161">
        <ele>991</ele>
        <time>2015-10-18T07:52:30Z</time>
      </trkpt>
      <trkpt lat="45.82472" lon="2.96183">
        <ele>987</ele>
        <time>2015-10-18T07:54:30Z</time>
      </trkpt>
      <trkpt lat="45.82475" lon="2.96207">
        <ele>983</ele>
        <time>2015-10-18T07:56:30Z</time>
      </trkpt>
      <trkpt lat="45.82477" lon="2.96233">
        <ele>979</ele>
        <time>2015-10-18T07:58:30Z</time>
      </trkpt>
      <trkpt lat="45.82473" lon="2.96252">
        <ele>977</ele>
        <time>2015-10-18T08:00:30Z</time>
      </trkpt>
      <trkpt lat="45.82474" lon="2.96273">
        <ele>977</ele>
        <time>2015-10-18T08:02:30Z</time>
      </trkpt>
      <trkpt lat="45.82477" lon="2.96294">
        <ele>978</ele>
        <time>2015-10-18T08:04:30Z</time>
      </trkpt>
      <trkpt lat="45.82463" lon="2.96307">
        <ele>979</ele>
        <time>2015-10-18T08:06:30Z</time>
      </trkpt>
      <trkpt lat="45.82451" lon="2.96314">
        <ele>980</ele>
        <time>2015-10-18T08:08:30Z</time>
      </trkpt>
      <trkpt lat="45.82425" lon="2.96317">
        <ele>981</ele>
        <time>2015-10-18T08:10:30Z</time>
      </trkpt>
      <trkpt lat="45.82398" lon="2.96313">
        <ele>981</ele>
        <time>2015-10-18T08:12:30Z</time>
      </trkpt>
      <trkpt lat="45.82368" lon="2.96313">
        <ele>980</ele>
        <time>2015-10-18T08:14:30Z</time>
      </trkpt>
      <trkpt lat="45.82335" lon="2.96316">
        <ele>979</ele>
        <time>2015-10-18T08:16:30Z</time>
      </trkpt>
      <trkpt lat="45.82305" lon="2.96317">
        <ele>978</ele>
        <time>2015-10-18T08:18:30Z</time>
      </trkpt>
      <trkpt lat="45.82282" lon="2.96328">
        <ele>977</ele>
        <time>2015-10-18T08:20:30Z</time>
      </trkpt>
      <trkpt lat="45.82258" lon="2.96333">
        <ele>975</ele>
        <time>2015-10-18T08:22:30Z</time>
      </trkpt>
      <trkpt lat="45.82227" lon="2.96339">
        <ele>974</ele>
        <time>2015-10-18T08:24:30Z</time>
      </trkpt>
      <trkpt lat="45.82206" lon="2.96347">
        <ele>974</ele>
        <time>2015-10-18T08:26:30Z</time>
      </trkpt>
      <trkpt lat="45.82175" lon="2.96356">
        <ele>973</ele>
        <time>2015-10-18T08:28:30Z</time>
      </trkpt>
      <trkpt lat="45.82155" lon="2.96369">
        <ele>973</ele>
        <time>2015-10-18T08:30:30Z</time>
      </trkpt>
      <trkpt lat="45.82134" lon="2.96381">
        <ele>972</ele>
        <time>2015-10-18T08:32:30Z</time>
      </trkpt>
      <trkpt lat="45.82113" lon="2.96386">
        <ele>971</ele>
        <time>2015-10-18T08:34:30Z</time>
      </trkpt>
      <trkpt lat="45.82089" lon="2.96396">
        <ele>970</ele>
        <time>2015-10-18T08:36:30Z</time>
      </trkpt>
      <trkpt lat="45.82067" lon="2.9641">
        <ele>969</ele>
        <time>2015-10-18T08:38:30Z</time>
      </trkpt>
      <trkpt lat="45.82045" lon="2.96421">
        <ele>968</ele>
        <time>2015-10-18T08:40:30Z</time>
      </trkpt>
      <trkpt lat="45.82012" lon="2.9644">
        <ele>968</ele>
        <time>2015-10-18T08:42:30Z</time>
      </trkpt>
      <trkpt lat="45.81987" lon="2.96454">
        <ele>968</ele>
        <time>2015-10-18T08:44:30Z</time>
      </trkpt>
      <trkpt lat="45.81962" lon="2.96464">
        <ele>969</ele>
        <time>2015-10-18T08:46:30Z</time>
      </trkpt>
      <trkpt lat="45.81923" lon="2.9648">
        <ele>971</ele>
        <time>2015-10-18T08:48:30Z</time>
      </trkpt>
      <trkpt lat="45.819" lon="2.96492">
        <ele>971</ele>
        <time>2015-10-18T08:50:30Z</time>
      </trkpt>
      <trkpt lat="45.81859" lon="2.96509">
        <ele>971</ele>
        <time>2015-10-18T08:52:30Z</time>
      </trkpt>
      <trkpt lat="45.81833" lon="2.96528">
        <ele>971</ele>
        <time>2015-10-18T08:54:30Z</time>
      </trkpt>
      <trkpt lat="45.81811" lon="2.96551">
        <ele>972</ele>
        <time>2015-10-18T08:56:30Z</time>
      </trkpt>
      <trkpt lat="45.81784" lon="2.96584">
        <ele>973</ele>
        <time>2015-10-18T08:58:30Z</time>
      </trkpt>
      <trkpt lat="45.8175" lon="2.96625">
        <ele>973</ele>
        <time>2015-10-18T09:00:30Z</time>
      </trkpt>
      <trkpt lat="45.81726" lon="2.9666">
        <ele>972</ele>
        <time>2015-10-18T09:02:30Z</time>
      </trkpt>
      <trkpt lat="45.81712" lon="2.96675">
        <ele>972</ele>
        <time>2015-10-18T09:04:30Z</time>
      </trkpt>
      <trkpt lat="45.81697" lon="2.96694">
        <ele>972</ele>
        <time>2015-10-18T09:06:30Z</time>
      </trkpt>
      <trkpt lat="45.81683" lon="2.9671">
        <ele>972</ele>
        <time>2015-10-18T09:08:30Z</time>
      </trkpt>
      <trkpt lat="45.81682" lon="2.96725">
        <ele>972</ele>
        <time>2015-10-18T09:10:30Z</time>
      </trkpt>
      <trkpt lat="45.81668" lon="2.96738">
        <ele>972</ele>
        <time>2015-10-18T09:12:30Z</time>
      </trkpt>
      <trkpt lat="45.81657" lon="2.96742">
        <ele>972</ele>
        <time>2015-10-18T09:14:30Z</time>
      </trkpt>
      <trkpt lat="45.81651" lon="2.9676">
        <ele>972</ele>
        <time>2015-10-18T09:16:30Z</time>
      </trkpt>
      <trkpt lat="45.81639" lon="2.96773">
        <ele>971</ele>
        <time>2015-10-18T09:18:30Z</time>
      </trkpt>
      <trkpt lat="45.81621" lon="2.96797">
        <ele>971</ele>
        <time>2015-10-18T09:20:30Z</time>
      </trkpt>
      <trkpt lat="45.81603" lon="2.96821">
        <ele>972</ele>
        <time>2015-10-18T09:22:30Z</time>
      </trkpt>
      <trkpt lat="45.81586" lon="2.96852">
        <ele>972</ele>
        <time>2015-10-18T09:24:30Z</time>
      </trkpt>
      <trkpt lat="45.81574" lon="2.96876">
        <ele>972</ele>
        <time>2015-10-18T09:26:30Z</time>
      </trkpt>
      <trkpt lat="45.81562" lon="2.96901">
        <ele>973</ele>
        <time>2015-10-18T09:28:30Z</time>
      </trkpt>
      <trkpt lat="45.81547" lon="2.96926">
        <ele>973</ele>
        <time>2015-10-18T09:30:30Z</time>
      </trkpt>
      <trkpt lat="45.81562" lon="2.96958">
        <ele>973</ele>
        <time>2015-10-18T09:32:30Z</time>
      </trkpt>
      <trkpt lat="45.81577" lon="2.96991">
        <ele>973</ele>
        <time>2015-10-18T09:34:30Z</time>
      </trkpt>
      <trkpt lat="45.81595" lon="2.97029">
        <ele>973</ele>
        <time>2015-10-18T09:36:30Z</time>
      </trkpt>
      <trkpt lat="45.81612" lon="2.97065">
        <ele>972</ele>
        <time>2015-10-18T09:38:30Z</time>
      </trkpt>
      <trkpt lat="45.81628" lon="2.971">
        <ele>970</ele>
        <time>2015-10-18T09:40:30Z</time>
      </trkpt>
      <trkpt lat="45.81643" lon="2.97128">
        <ele>967</ele>
        <time>2015-10-18T09:42:30Z</time>
      </trkpt>
      <trkpt lat="45.81668" lon="2.97167">
        <ele>963</ele>
        <time>2015-10-18T09:44:30Z</time>
      </trkpt>
      <trkpt lat="45.81636" lon="2.97186">
        <ele>965</ele>
        <time>2015-10-18T09:46:30Z</time>
      </trkpt>
      <trkpt lat="45.81612" lon="2.9721">
        <ele>966</ele>
        <time>2015-10-18T09:48:30Z</time>
      </trkpt>
      <trkpt lat="45.81585" lon="2.9723">
        <ele>966</ele>
        <time>2015-10-18T09:50:30Z</time>
      </trkpt>
      <trkpt lat="45.81562" lon="2.97249">
        <ele>967</ele>
        <time>2015-10-18T09:52:30Z</time>
      </trkpt>
      <trkpt lat="45.81539" lon="2.97267">
        <ele>968</ele>
        <time>2015-10-18T09:54:30Z</time>
      </trkpt>
      <trkpt lat="45.81509" lon="2.9729">
        <ele>970</ele>
        <time>2015-10-18T09:56:30Z</time>
      </trkpt>
      <trkpt lat="45.81482" lon="2.97314">
        <ele>970</ele>
        <time>2015-10-18T09:58:30Z</time>
      </trkpt>
      <trkpt lat="45.81461" lon="2.97332">
        <ele>970</ele>
        <time>2015-10-18T10:00:30Z</time>
      </trkpt>
      <trkpt lat="45.81437" lon="2.97351">
        <ele>970</ele>
        <time>2015-10-18T10:02:30Z</time>
      </trkpt>
      <trkpt lat="45.81412" lon="2.97375">
        <ele>970</ele>
        <time>2015-10-18T10:04:30Z</time>
      </trkpt>
      <trkpt lat="45.81394" lon="2.97397">
        <ele>968</ele>
        <time>2015-10-18T10:06:30Z</time>
      </trkpt>
      <trkpt lat="45.81374" lon="2.9742">
        <ele>968</ele>
        <time>2015-10-18T10:08:30Z</time>
      </trkpt>
      <trkpt lat="45.81363" lon="2.97473">
        <ele>969</ele>
        <time>2015-10-18T10:10:30Z</time>
      </trkpt>
      <trkpt lat="45.81357" lon="2.97504">
        <ele>970</ele>
        <time>2015-10-18T10:12:30Z</time>
      </trkpt>
      <trkpt lat="45.81345" lon="2.97533">
        <ele>976</ele>
        <time>2015-10-18T10:14:30Z</time>
      </trkpt>
      <trkpt lat="45.81338" lon="2.97575">
        <ele>984</ele>
        <time>2015-10-18T10:16:30Z</time>
      </trkpt>
      <trkpt lat="45.81326" lon="2.97606">
        <ele>994</ele>
        <time>2015-10-18T10:18:30Z</time>
      </trkpt>
      <trkpt lat="45.81312" lon="2.97636">
        <ele>1004</ele>
        <time>2015-10-18T10:20:30Z</time>
      </trkpt>
      <trkpt lat="45.81298" lon="2.9766">
        <ele>1012</ele>
        <time>2015-10-18T10:22:30Z</time>
      </trkpt>
      <trkpt lat="45.81267" lon="2.97697">
        <ele>1023</ele>
        <time>2015-10-18T10:24:30Z</time>
      </trkpt>
      <trkpt lat="45.81255" lon="2.97715">
        <ele>1026</ele>
        <time>2015-10-18T10:26:30Z</time>
      </trkpt>
      <trkpt lat="45.81242" lon="2.9775">
        <ele>1032</ele>
        <time>2015-10-18T10:28:30Z</time>
      </trkpt>
      <trkpt lat="45.81235" lon="2.97784">
        <ele>1041</ele>
        <time>2015-10-18T10:30:30Z</time>
      </trkpt>
      <trkpt lat="45.8123" lon="2.97805">
        <ele>1047</ele>
        <time>2015-10-18T10:32:30Z</time>
      </trkpt>
      <trkpt lat="45.8122" lon="2.97846">
        <ele>1057</ele>
        <time>2015-10-18T10:34:30Z</time>
      </trkpt>
      <trkpt lat="45.81211" lon="2.97885">
        <ele>1064</ele>
        <time>2015-10-18T10:36:30Z</time>
      </trkpt>
      <trkpt lat="45.81196" lon="2.97918">
        <ele>1068</ele>
        <time>2015-10-18T10:38:30Z</time>
      </trkpt>
      <trkpt lat="45.81188" lon="2.97948">
        <ele>1070</ele>
        <time>2015-10-18T10:40:30Z</time>
      </trkpt>
      <trkpt lat="45.81182" lon="2.97971">
        <ele>1070</ele>
        <time>2015-10-18T10:42:30Z</time>
      </trkpt>
      <trkpt lat="45.8117" lon="2.97996">
        <ele>1068</ele>
        <time>2015-10-18T10:44:30Z</time>
      </trkpt>
      <trkpt lat="45.81146" lon="2.98032">
        <ele>1074</ele>
        <time>2015-10-18T10:46:30Z</time>
      </trkpt>
      <trkpt lat="45.81132" lon="2.98054">
        <ele>1077</ele>
        <time>2015-10-18T10:48:30Z</time>
      </trkpt>
      <trkpt lat="45.81123" lon="2.98083">
        <ele>1077</ele>
        <time>2015-10-18T10:50:30Z</time>
      </trkpt>
      <trkpt lat="45.81116" lon="2.98122">
        <ele>1074</ele>
        <time>2015-10-18T10:52:30Z</time>
      </trkpt>
      <trkpt lat="45.81114" lon="2.9815">
        <ele>1071</ele>
        <time>2015-10-18T10:54:30Z</time>
      </trkpt>
      <trkpt lat="45.81115" lon="2.98192">
        <ele>1065</ele>
        <time>2015-10-18T10:56:30Z</time>
      </trkpt>
      <trkpt lat="45.81096" lon="2.98235">
        <ele>1058</ele>
        <time>2015-10-18T10:58:30Z</time>
      </trkpt>
      <trkpt lat="45.81073" lon="2.98287">
        <ele>1050</ele>
        <time>2015-10-18T11:00:30Z</time>
      </trkpt>
      <trkpt lat="45.81048" lon="2.98332">
        <ele>1046</ele>
        <time>2015-10-18T11:02:30Z</time>
      </trkpt>
      <trkpt lat="45.81025" lon="2.98362">
        <ele>1042</ele>
        <time>2015-10-18T11:04:30Z</time>
      </trkpt>
      <trkpt lat="45.80991" lon="2.98381">
        <ele>1041</ele>
        <time>2015-10-18T11:06:30Z</time>
      </trkpt>
      <trkpt lat="45.80961" lon="2.98394">
        <ele>1040</ele>
        <time>2015-10-18T11:08:30Z</time>
      </trkpt>
      <trkpt lat="45.80927" lon="2.98433">
        <ele>1032</ele>
        <time>2015-10-18T11:10:30Z</time>
      </trkpt>
      <trkpt lat="45.80892" lon="2.98482">
        <ele>1020</ele>
        <time>2015-10-18T11:12:30Z</time>
      </trkpt>
      <trkpt lat="45.80861" lon="2.98529">
        <ele>1009</ele>
        <time>2015-10-18T11:14:30Z</time>
      </trkpt>
      <trkpt lat="45.80843" lon="2.98545">
        <ele>1005</ele>
        <time>2015-10-18T11:16:30Z</time>
      </trkpt>
      <trkpt lat="45.80822" lon="2.98563">
        <ele>1000</ele>
        <time>2015-10-18T11:18:30Z</time>
      </trkpt>
      <trkpt lat="45.80799" lon="2.98582">
        <ele>996</ele>
        <time>2015-10-18T11:20:30Z</time>
      </trkpt>
      <trkpt lat="45.80777" lon="2.98593">
        <ele>993</ele>
        <time>2015-10-18T11:22:30Z</time>
      </trkpt>
      <trkpt lat="45.8076" lon="2.98605">
        <ele>992</ele>
        <time>2015-10-18T11:24:30Z</time>
      </trkpt>
      <trkpt lat="45.80744" lon="2.98617">
        <ele>990</ele>
        <time>2015-10-18T11:26:30Z</time>
      </trkpt>
      <trkpt lat="45.80734" lon="2.98624">
        <ele>988</ele>
        <time>2015-10-18T11:28:30Z</time>
      </trkpt>
      <trkpt lat="45.80718" lon="2.98617">
        <ele>988</ele>
        <time>2015-10-18T11:30:30Z</time>
      </trkpt>
      <trkpt lat="45.80702" lon="2.98609">
        <ele>987</ele>
        <time>2015-10-18T11:32:30Z</time>
      </trkpt>
      <trkpt lat="45.80689" lon="2.98594">
        <ele>986</ele>
        <time>2015-10-18T11:34:30Z</time>
      </trkpt>
      <trkpt lat="45.80678" lon="2.98578">
        <ele>986</ele>
        <time>2015-10-18T11:36:30Z</time>
      </trkpt>
      <trkpt lat="45.80666" lon="2.98567">
        <ele>985</ele>
        <time>2015-10-18T11:38:30Z</time>
      </trkpt>
      <trkpt lat="45.80667" lon="2.98591">
        <ele>984</ele>
        <time>2015-10-18T11:40:30Z</time>
      </trkpt>
      <trkpt lat="45.8067" lon="2.98619">
        <ele>984</ele>
        <time>2015-10-18T11:42:30Z</time>
      </trkpt>
      <trkpt lat="45.80673" lon="2.9865">
        <ele>984</ele>
        <time>2015-10-18T11:44:30Z</time>
      </trkpt>
      <trkpt lat="45.80678" lon="2.98681">
        <ele>983</ele>
        <time>2015-10-18T11:46:30Z</time>
      </trkpt>
      <trkpt lat="45.80684" lon="2.98712">
        <ele>982</ele>
        <time>2015-10-18T11:48:30Z</time>
      </trkpt>
      <trkpt lat="45.80688" lon="2.98745">
        <ele>981</ele>
        <time>2015-10-18T11:50:30Z</time>
      </trkpt>
      <trkpt lat="45.80698" lon="2.98779">
        <ele>981</ele>
        <time>2015-10-18T11:52:30Z</time>
      </trkpt>
      <trkpt lat="45.80689" lon="2.98798">
        <ele>981</ele>
        <time>2015-10-18T11:54:30Z</time>
      </trkpt>
      <trkpt lat="45.8067" lon="2.98798">
        <ele>981</ele>
        <time>2015-10-18T11:56:30Z</time>
      </trkpt>
      <trkpt lat="45.80636" lon="2.98803">
        <ele>980</ele>
        <time>2015-10-18T11:58:30Z</time>
      </trkpt>
      <trkpt lat="45.8062" lon="2.98805">
        <ele>980</ele>
        <time>2015-10-18T12:00:30Z</time>
      </trkpt>
      <trkpt lat="45.80611" lon="2.9882">
        <ele>980</ele>
        <time>2015-10-18T12:02:30Z</time>
      </trkpt>
      <trkpt lat="45.80601" lon="2.98836">
        <ele>980</ele>
        <time>2015-10-18T12:04:30Z</time>
      </trkpt>
      <trkpt lat="45.80593" lon="2.98858">
        <ele>982</ele>
        <time>2015-10-18T12:06:30Z</time>
      </trkpt>
      <trkpt lat="45.80568" lon="2.98878">
        <ele>982</ele>
        <time>2015-10-18T12:08:30Z</time>
      </trkpt>
      <trkpt lat="45.80553" lon="2.98891">
        <ele>981</ele>
        <time>2015-10-18T12:10:30Z</time>
      </trkpt>
      <trkpt lat="45.8054" lon="2.98913">
        <ele>981</ele>
        <time>2015-10-18T12:12:30Z</time>
      </trkpt>
      <trkpt lat="45.8053" lon="2.98929">
        <ele>980</ele>
        <time>2015-10-18T12:14:30Z</time>
      </trkpt>
      <trkpt lat="45.80523" lon="2.98948">
        <ele>979</ele>
        <time>2015-10-18T12:16:30Z</time>
      </trkpt>
      <trkpt lat="45.80515" lon="2.98965">
        <ele>979</ele>
        <time>2015-10-18T12:18:30Z</time>
      </trkpt>
      <trkpt lat="45.80508" lon="2.98996">
        <ele>978</ele>
        <time>2015-10-18T12:20:30Z</time>
      </trkpt>
      <trkpt lat="45.80498" lon="2.99025">
        <ele>977</ele>
        <time>2015-10-18T12:22:30Z</time>
      </trkpt>
      <trkpt lat="45.80495" lon="2.99059">
        <ele>977</ele>
        <time>2015-10-18T12:24:30Z</time>
      </trkpt>
      <trkpt lat="45.8048" lon="2.99103">
        <ele>977</ele>
        <time>2015-10-18T12:26:30Z</time>
      </trkpt>
      <trkpt lat="45.8047" lon="2.99126">
        <ele>977</ele>
        <time>2015-10-18T12:28:30Z</time>
      </trkpt>
      <trkpt lat="45.8046" lon="2.99132">
        <ele>977</ele>
        <time>2015-10-18T12:30:30Z</time>
      </trkpt>
      <trkpt lat="45.80449" lon="2.99134">
        <ele>976</ele>
        <time>2015-10-18T12:32:30Z</time>
      </trkpt>
      <trkpt lat="45.8044" lon="2.99119">
        <ele>975</ele>
        <time>2015-10-18T12:34:30Z</time>
      </trkpt>
      <trkpt lat="45.80445" lon="2.99155">
        <ele>976</ele>
        <time>2015-10-18T12:36:30Z</time>
      </trkpt>
      <trkpt lat="45.8045" lon="2.99181">
        <ele>977</ele>
        <time>2015-10-18T12:38:30Z</time>
      </trkpt>
      <trkpt lat="45.80453" lon="2.99216">
        <ele>977</ele>
        <time>2015-10-18T12:40:30Z</time>
      </trkpt>
      <trkpt lat="45.80455" lon="2.99258">
        <ele>976</ele>
        <time>2015-10-18T12:42:30Z</time>
      </trkpt>
      <trkpt lat="45.80461" lon="2.99296">
        <ele>977</ele>
        <time>2015-10-18T12:44:30Z</time>
      </trkpt>
      <trkpt lat="45.80466" lon="2.99335">
        <ele>977</ele>
        <time>2015-10-18T12:46:30Z</time>
      </trkpt>
      <trkpt lat="45.80471" lon="2.9939">
        <ele>978</ele>
        <time>2015-10-18T12:48:30Z</time>
      </trkpt>
      <trkpt lat="45.80479" lon="2.99439">
        <ele>980</ele>
        <time>2015-10-18T12:50:30Z</time>
      </trkpt>
      <trkpt lat="45.80483" lon="2.99472">
        <ele>981</ele>
        <time>2015-10-18T12:52:30Z</time>
      </trkpt>
      <trkpt lat="45.8049" lon="2.99511">
        <ele>983</ele>
        <time>2015-10-18T12:54:30Z</time>
      </trkpt>
      <trkpt lat="45.80501" lon="2.99542">
        <ele>985</ele>
        <time>2015-10-18T12:56:30Z</time>
      </trkpt>
      <trkpt lat="45.80511" lon="2.99586">
        <ele>988</ele>
        <time>2015-10-18T12:58:30Z</time>
      </trkpt>
      <trkpt lat="45.80523" lon="2.99629">
        <ele>989</ele>
        <time>2015-10-18T13:00:30Z</time>
      </trkpt>
      <trkpt lat="45.80532" lon="2.99659">
        <ele>990</ele>
        <time>2015-10-18T13:02:30Z</time>
      </trkpt>
      <trkpt lat="45.80544" lon="2.99689">
        <ele>992</ele>
        <time>2015-10-18T13:04:30Z</time>
      </trkpt>
      <trkpt lat="45.80551" lon="2.99716">
        <ele>993</ele>
        <time>2015-10-18T13:06:30Z</time>
      </trkpt>
      <trkpt lat="45.80573" lon="2.99781">
        <ele>996</ele>
        <time>2015-10-18T13:08:30Z</time>
      </trkpt>
      <trkpt lat="45.80595" lon="2.99836">
        <ele>1000</ele>
        <time>2015-10-18T13:10:30Z</time>
      </trkpt>
      <trkpt lat="45.80617" lon="2.99885">
        <ele>1004</ele>
        <time>2015-10-18T13:12:30Z</time>
      </trkpt>
      <trkpt lat="45.80631" lon="2.99937">
        <ele>1006</ele>
        <time>2015-10-18T13:14:30Z</time>
      </trkpt>
      <trkpt lat="45.80645" lon="2.99974">
        <ele>1007</ele>
        <time>2015-10-18T13:16:30Z</time>
      </trkpt>
      <trkpt lat="45.80657" lon="3.00016">
        <ele>1005</ele>
        <time>2015-10-18T13:18:30Z</time>
      </trkpt>
      <trkpt lat="45.80669" lon="3.00055">
        <ele>1002</ele>
        <time>2015-10-18T13:20:30Z</time>
      </trkpt>
      <trkpt lat="45.80672" lon="3.00075">
        <ele>1002</ele>
        <time>2015-10-18T13:22:30Z</time>
      </trkpt>
      <trkpt lat="45.80669" lon="3.00097">
        <ele>1000</ele>
        <time>2015-10-18T13:24:30Z</time>
      </trkpt>
      <trkpt lat="45.80664" lon="3.00113">
        <ele>998</ele>
        <time>2015-10-18T13:26:30Z</time>
      </trkpt>
      <trkpt lat="45.80719" lon="3.00133">
        <ele>997</ele>
        <time>2015-10-18T13:28:30Z</time>
      </trkpt>
      <trkpt lat="45.80705" lon="3.00145">
        <ele>995</ele>
        <time>2015-10-18T13:30:30Z</time>
      </trkpt>
      <trkpt lat="45.80703" lon="3.0018">
        <ele>991</ele>
        <time>2015-10-18T13:32:30Z</time>
      </trkpt>
      <trkpt lat="45.80702" lon="3.00214">
        <ele>987</ele>
        <time>2015-10-18T13:34:30Z</time>
      </trkpt>
      <trkpt lat="45.807" lon="3.00232">
        <ele>984</ele>
        <time>2015-10-18T13:36:30Z</time>
      </trkpt>
      <trkpt lat="45.80694" lon="3.00251">
        <ele>982</ele>
        <time>2015-10-18T13:38:30Z</time>
      </trkpt>
      <trkpt lat="45.80691" lon="3.00281">
        <ele>977</ele>
        <time>2015-10-18T13:40:30Z</time>
      </trkpt>
      <trkpt lat="45.80686" lon="3.00319">
        <ele>972</ele>
        <time>2015-10-18T13:42:30Z</time>
      </trkpt>
      <trkpt lat="45.80687" lon="3.00352">
        <ele>966</ele>
        <time>2015-10-18T13:44:30Z</time>
      </trkpt>
      <trkpt lat="45.80683" lon="3.00378">
        <ele>961</ele>
        <time>2015-10-18T13:46:30Z</time>
      </trkpt>
      <trkpt lat="45.80685" lon="3.00433">
        <ele>949</ele>
        <time>2015-10-18T13:48:30Z</time>
      </trkpt>
      <trkpt lat="45.80689" lon="3.00457">
        <ele>944</ele>
        <time>2015-10-18T13:50:30Z</time>
      </trkpt>
      <trkpt lat="45.80709" lon="3.00486">
        <ele>938</ele>
        <time>2015-10-18T13:52:30Z</time>
      </trkpt>
      <trkpt lat="45.80727" lon="3.00503">
        <ele>935</ele>
        <time>2015-10-18T13:54:30Z</time>
      </trkpt>
      <trkpt lat="45.8074" lon="3.00509">
        <ele>934</ele>
        <time>2015-10-18T13:56:30Z</time>
      </trkpt>
      <trkpt lat="45.80752" lon="3.00519">
        <ele>932</ele>
        <time>2015-10-18T13:58:30Z</time>
      </trkpt>
      <trkpt lat="45.80764" lon="3.00548">
        <ele>926</ele>
        <time>2015-10-18T14:00:30Z</time>
      </trkpt>
      <trkpt lat="45.80794" lon="3.0059">
        <ele>919</ele>
        <time>2015-10-18T14:02:30Z</time>
      </trkpt>
      <trkpt lat="45.80806" lon="3.00608">
        <ele>915</ele>
        <time>2015-10-18T14:04:30Z</time>
      </trkpt>
      <trkpt lat="45.80817" lon="3.00631">
        <ele>910</ele>
        <time>2015-10-18T14:06:30Z</time>
      </trkpt>
      <trkpt lat="45.80832" lon="3.00665">
        <ele>903</ele>
        <time>2015-10-18T14:08:30Z</time>
      </trkpt>
      <trkpt lat="45.80835" lon="3.00697">
        <ele>898</ele>
        <time>2015-10-18T14:10:30Z</time>
      </trkpt>
      <trkpt lat="45.80837" lon="3.00723">
        <ele>893</ele>
        <time>2015-10-18T14:12:30Z</time>
      </trkpt>
      <trkpt lat="45.80837" lon="3.00744">
        <ele>889</ele>
        <time>2015-10-18T14:14:30Z</time>
      </trkpt>
      <trkpt lat="45.80841" lon="3.00763">
        <ele>887</ele>
        <time>2015-10-18T14:16:30Z</time>
      </trkpt>
      <trkpt lat="45.80848" lon="3.00778">
        <ele>886</ele>
        <time>2015-10-18T14:18:30Z</time>
      </trkpt>
      <trkpt lat="45.80862" lon="3.00793">
        <ele>885</ele>
        <time>2015-10-18T14:20:30Z</time>
      </trkpt>
      <trkpt lat="45.80871" lon="3.00807">
        <ele>883</ele>
        <time>2015-10-18T14:22:30Z</time>
      </trkpt>
      <trkpt lat="45.80877" lon="3.00823">
        <ele>881</ele>
        <time>2015-10-18T14:24:30Z</time>
      </trkpt>
      <trkpt lat="45.80895" lon="3.00848">
        <ele>878</ele>
        <time>2015-10-18T14:26:30Z</time>
      </trkpt>
      <trkpt lat="45.80912" lon="3.00863">
        <ele>876</ele>
        <time>2015-10-18T14:28:30Z</time>
      </trkpt>
      <trkpt lat="45.80924" lon="3.00878">
        <ele>874</ele>
        <time>2015-10-18T14:30:30Z</time>
      </trkpt>
      <trkpt lat="45.80935" lon="3.00886">
        <ele>873</ele>
        <time>2015-10-18T14:32:30Z</time>
      </trkpt>
      <trkpt lat="45.80947" lon="3.00901">
        <ele>871</ele>
        <time>2015-10-18T14:34:30Z</time>
      </trkpt>
      <trkpt lat="45.80954" lon="3.00896">
        <ele>872</ele>
        <time>2015-10-18T14:36:30Z</time>
      </trkpt>
    </trkseg>
  </trk>
</gpx>